Home > Products > Valid Products > TAF

000
FTUS46 KLOX 010500
TAFLAX
TAF
KLAX 010538Z 0106/0212 19008KT 6SM -SHRA SCT020 OVC035
     FM010800 09007KT 6SM -SHRA BR SCT015 OVC035
      TEMPO 0108/0112 4SM SHRA BKN015
     FM011300 11007KT P6SM -SHRA VCTS SCT025CB BKN035
     FM011800 19007KT P6SM -SHRA SCT025 OVC040
     FM012100 26010KT P6SM -SHRA SCT025 OVC045
     FM020400 29007KT P6SM VCSH SCT025 BKN035=



000
FTUS46 KLOX 010500
TAFBUR
TAF
KBUR 010538Z 0106/0206 14006KT 6SM -SHRA SCT020 OVC035
     FM010800 14007KT 6SM -SHRA BR SCT015 OVC035
      TEMPO 0108/0112 4SM SHRA BKN015
     FM011300 14007KT P6SM -SHRA VCTS SCT025CB BKN035
     FM011800 14007KT P6SM -SHRA SCT025 OVC040
     FM020400 19007KT P6SM VCSH SCT025 BKN035=



000
FTUS46 KLOX 010500
TAFLAX
TAF
KLAX 010538Z 0106/0212 19008KT 6SM -SHRA SCT020 OVC035
     FM010800 09007KT 6SM -SHRA BR SCT015 OVC035
      TEMPO 0108/0112 4SM SHRA BKN015
     FM011300 11007KT P6SM -SHRA VCTS SCT025CB BKN035
     FM011800 19007KT P6SM -SHRA SCT025 OVC040
     FM012100 26010KT P6SM -SHRA SCT025 OVC045
     FM020400 29007KT P6SM VCSH SCT025 BKN035=



000
FTUS46 KLOX 010500
TAFSBA
TAF
KSBA 010538Z 0106/0206 VRB03KT 6SM -SHRA SCT025 BKN050
     FM010800 VRB03KT 6SM -SHRA SCT015 BKN035
      TEMPO 0108/0112 4SM SHRA BKN015
     FM011400 VRB03KT P6SM VCSH SCT025 OVC040
     FM012000 22007KT P6SM VCSH SCT030 BKN050
      TEMPO 0120/0124 6SM -SHRA BKN025
     FM020200 VRB03KT P6SM VCSH SCT025 BKN040=



000
FTUS46 KLOX 010500
TAFLGB
TAF
KLGB 010538Z 0106/0206 23007KT 6SM -SHRA SCT020 OVC035
     FM010800 13007KT 6SM -SHRA BR SCT015 OVC035
      TEMPO 0108/0112 4SM SHRA BKN015
     FM011300 15007KT P6SM -SHRA VCTS SCT025CB BKN035
     FM011800 19007KT P6SM -SHRA SCT025 OVC040
     FM020400 22007KT P6SM VCSH SCT025 BKN035=



000
FTUS46 KLOX 010500
TAFWJF
TAF
KWJF 010538Z 0106/0206 25010KT P6SM VCSH BKN025 OVC050
     FM011400 VRB03KT P6SM VCSH SCT025 BKN035
     FM012000 23010KT P6SM VCSH SCT015 OVC035=



000
FTUS46 KLOX 010500
TAFVNY
TAF
KVNY 010538Z 0106/0206 12006KT 6SM -SHRA SCT020 OVC035
     FM010800 12007KT 6SM -SHRA BR SCT015 OVC035
      TEMPO 0108/0112 4SM SHRA BKN015
     FM011300 12007KT P6SM -SHRA VCTS SCT025CB BKN035
     FM011800 12007KT P6SM -SHRA SCT025 OVC040
     FM020400 14007KT P6SM VCSH SCT025 BKN035=



000
FTUS46 KLOX 010500
TAFSBP
TAF
KSBP 010538Z 0106/0206 VRB03KT P6SM VCSH SCT025 BKN040
     FM011700 VRB03KT P6SM VCSH SCT025 BKN050
     FM012100 29008KT P6SM VCSH SCT035 BKN070
     FM020300 VRB03KT P6SM SCT050 BKN100=



000
FTUS46 KLOX 010500
TAFPMD
TAF
KPMD 010538Z 0106/0206 25010KT P6SM VCSH SCT025 OVC050
     FM011400 VRB03KT P6SM VCSH SCT025 BKN035
     FM012000 23010KT P6SM VCSH SCT015 OVC035=



000
FTUS46 KLOX 010500
TAFPRB
TAF
KPRB 010538Z 0106/0206 19008KT P6SM VCSH SCT025 BKN040
     FM011100 VRB03KT P6SM SCT025 BKN035
     FM011700 VRB03KT P6SM VCSH SCT025 BKN040
     FM012200 16006KT P6SM VCSH SCT040 BKN070
     FM020500 VRB03KT P6SM SCT050 BKN100=



000
FTUS46 KLOX 010500
TAFSMX
TAF
KSMX 010538Z 0106/0206 VRB03KT P6SM VCSH SCT025 BKN040
     FM011700 VRB03KT P6SM VCSH SCT025 BKN050
     FM012100 29008KT P6SM VCSH SCT035 BKN070
     FM020300 VRB03KT P6SM SCT050 BKN100=



000
FTUS46 KLOX 010500
TAFPMD
TAF
KPMD 010538Z 0106/0206 25010KT P6SM VCSH SCT025 OVC050
     FM011400 VRB03KT P6SM VCSH SCT025 BKN035
     FM012000 23010KT P6SM VCSH SCT015 OVC035=



000
FTUS46 KLOX 010500
TAFLGB
TAF
KLGB 010538Z 0106/0206 23007KT 6SM -SHRA SCT020 OVC035
     FM010800 13007KT 6SM -SHRA BR SCT015 OVC035
      TEMPO 0108/0112 4SM SHRA BKN015
     FM011300 15007KT P6SM -SHRA VCTS SCT025CB BKN035
     FM011800 19007KT P6SM -SHRA SCT025 OVC040
     FM020400 22007KT P6SM VCSH SCT025 BKN035=



000
FTUS46 KLOX 010500
TAFWJF
TAF
KWJF 010538Z 0106/0206 25010KT P6SM VCSH BKN025 OVC050
     FM011400 VRB03KT P6SM VCSH SCT025 BKN035
     FM012000 23010KT P6SM VCSH SCT015 OVC035=



000
FTUS46 KLOX 010500
TAFSMX
TAF
KSMX 010538Z 0106/0206 VRB03KT P6SM VCSH SCT025 BKN040
     FM011700 VRB03KT P6SM VCSH SCT025 BKN050
     FM012100 29008KT P6SM VCSH SCT035 BKN070
     FM020300 VRB03KT P6SM SCT050 BKN100=



000
FTUS46 KLOX 010500
TAFBUR
TAF
KBUR 010538Z 0106/0206 14006KT 6SM -SHRA SCT020 OVC035
     FM010800 14007KT 6SM -SHRA BR SCT015 OVC035
      TEMPO 0108/0112 4SM SHRA BKN015
     FM011300 14007KT P6SM -SHRA VCTS SCT025CB BKN035
     FM011800 14007KT P6SM -SHRA SCT025 OVC040
     FM020400 19007KT P6SM VCSH SCT025 BKN035=



000
FTUS46 KLOX 010500
TAFPRB
TAF
KPRB 010538Z 0106/0206 19008KT P6SM VCSH SCT025 BKN040
     FM011100 VRB03KT P6SM SCT025 BKN035
     FM011700 VRB03KT P6SM VCSH SCT025 BKN040
     FM012200 16006KT P6SM VCSH SCT040 BKN070
     FM020500 VRB03KT P6SM SCT050 BKN100=



000
FTUS46 KLOX 010500
TAFSBA
TAF
KSBA 010538Z 0106/0206 VRB03KT 6SM -SHRA SCT025 BKN050
     FM010800 VRB03KT 6SM -SHRA SCT015 BKN035
      TEMPO 0108/0112 4SM SHRA BKN015
     FM011400 VRB03KT P6SM VCSH SCT025 OVC040
     FM012000 22007KT P6SM VCSH SCT030 BKN050
      TEMPO 0120/0124 6SM -SHRA BKN025
     FM020200 VRB03KT P6SM VCSH SCT025 BKN040=



000
FTUS46 KLOX 010500
TAFSBP
TAF
KSBP 010538Z 0106/0206 VRB03KT P6SM VCSH SCT025 BKN040
     FM011700 VRB03KT P6SM VCSH SCT025 BKN050
     FM012100 29008KT P6SM VCSH SCT035 BKN070
     FM020300 VRB03KT P6SM SCT050 BKN100=



000
FTUS46 KLOX 010500
TAFVNY
TAF
KVNY 010538Z 0106/0206 12006KT 6SM -SHRA SCT020 OVC035
     FM010800 12007KT 6SM -SHRA BR SCT015 OVC035
      TEMPO 0108/0112 4SM SHRA BKN015
     FM011300 12007KT P6SM -SHRA VCTS SCT025CB BKN035
     FM011800 12007KT P6SM -SHRA SCT025 OVC040
     FM020400 14007KT P6SM VCSH SCT025 BKN035=



000
FTUS46 KLOX 010300 AAC
TAFLAX
TAF AMD
KLAX 010336Z 0104/0206 25008KT 6SM -SHRA SCT022 BKN035 BKN100
     FM010700 08009KT 6SM -SHRA BR SCT025 OVC035
     FM011100 08007KT P6SM -SHRA VCTS SCT025CB BKN035 PROB30
      0113/0115 20020KT -TSRA OVC025CB
     FM011800 13005KT P6SM -SHRA SCT025 OVC040
     FM012000 24011KT P6SM -SHRA SCT025 OVC045
     FM020400 25006KT P6SM VCSH SCT025 BKN035=



000
FTUS46 KLOX 010300 AAB
TAFWJF
TAF AMD
KWJF 010321Z 0103/0124 23010G15KT P6SM SCT040 OVC080
     FM010600 26009KT 6SM -SHRA BKN025 OVC040
     FM011400 VRB03KT P6SM VCSH SCT025 BKN035
     FM011700 23007KT P6SM VCSH SCT015 BKN025
     FM012000 25010KT P6SM VCSH SCT015 OVC025=



000
FTUS46 KLOX 010300 AAB
TAFPMD
TAF AMD
KPMD 010320Z 0103/0124 24014G22KT 6SM -SHRA SCT035 BKN060
     FM010600 26010KT 6SM -SHRA BKN025 OVC040
     FM011400 VRB03KT P6SM VCSH SCT025 BKN035
     FM011700 15008KT P6SM VCSH SCT015 BKN025
     FM012000 28010KT P6SM VCSH SCT015 OVC025=



000
FTUS46 KLOX 010300 AAB
TAFLAX
TAF AMD
KLAX 010317Z 0103/0206 25008KT 6SM -SHRA SCT022 BKN035 BKN100
     FM010700 08009KT 6SM -SHRA BR SCT025 OVC035
     FM011100 08007KT P6SM -SHRA VCTS SCT025CB BKN035
     FM011800 13005KT P6SM -SHRA SCT025 OVC040
     FM012000 24011KT P6SM -SHRA SCT025 OVC045
     FM020400 25006KT P6SM VCSH SCT025 BKN035=



000
FTUS46 KLOX 010300 AAB
TAFLAX
TAF AMD
KLAX 010317Z 0103/0206 25008KT 6SM -SHRA SCT022 BKN035 BKN100
     FM010700 08009KT 6SM -SHRA BR SCT025 OVC035
     FM011100 08007KT P6SM -SHRA VCTS SCT025CB BKN035
     FM011800 13005KT P6SM -SHRA SCT025 OVC040
     FM012000 24011KT P6SM -SHRA SCT025 OVC045
     FM020400 25006KT P6SM VCSH SCT025 BKN035=



000
FTUS46 KLOX 010100 AAA
TAFPMD
TAF AMD
KPMD 010106Z 0101/0124 21016G23KT P6SM OVC060
     FM010300 25014G22KT 6SM -SHRA BKN025 OVC035
     FM010800 26010KT 6SM -SHRA BKN025 OVC040
     FM011400 VRB03KT P6SM VCSH SCT025 BKN035
     FM011700 15008KT P6SM VCSH SCT015 BKN025
     FM012000 28010KT P6SM VCSH SCT015 OVC025=



000
FTUS46 KLOX 010100 AAA
TAFWJF
TAF AMD
KWJF 010106Z 0101/0124 24016G23KT P6SM SCT040 OVC080
     FM010300 25012KT 6SM -SHRA BKN025 OVC035
     FM010800 26008KT 6SM -SHRA BKN025 OVC040
     FM011400 VRB03KT P6SM VCSH SCT025 BKN035
     FM011700 23007KT P6SM VCSH SCT015 BKN025
     FM012000 25010KT P6SM VCSH SCT015 OVC025=



000
FTUS46 KLOX 010100 AAA
TAFPMD
TAF AMD
KPMD 010106Z 0101/0124 21016G23KT P6SM OVC060
     FM010300 25014G22KT 6SM -SHRA BKN025 OVC035
     FM010800 26010KT 6SM -SHRA BKN025 OVC040
     FM011400 VRB03KT P6SM VCSH SCT025 BKN035
     FM011700 15008KT P6SM VCSH SCT015 BKN025
     FM012000 28010KT P6SM VCSH SCT015 OVC025=



000
FTUS46 KLOX 010100 AAA
TAFWJF
TAF AMD
KWJF 010106Z 0101/0124 24016G23KT P6SM SCT040 OVC080
     FM010300 25012KT 6SM -SHRA BKN025 OVC035
     FM010800 26008KT 6SM -SHRA BKN025 OVC040
     FM011400 VRB03KT P6SM VCSH SCT025 BKN035
     FM011700 23007KT P6SM VCSH SCT015 BKN025
     FM012000 25010KT P6SM VCSH SCT015 OVC025=



000
FTUS46 KLOX 010100 AAA
TAFLAX
TAF AMD
KLAX 010105Z 0101/0206 25011KT P6SM SCT030 BKN150
     FM010200 28012KT 6SM -SHRA SCT025 BKN040
     FM010700 08009KT 6SM -SHRA BR SCT025 OVC035
     FM011100 08007KT P6SM -SHRA VCTS SCT025CB BKN035 PROB30
      0111/0115 20020KT -TSRA OVC025CB
     FM011800 13005KT P6SM -SHRA SCT025 OVC040
     FM012000 24011KT P6SM -SHRA SCT025 OVC045
     FM020400 25006KT P6SM VCSH SCT025 BKN035=



000
FTUS46 KLOX 010100 AAA
TAFLGB
TAF AMD
KLGB 010105Z 0101/0124 25011KT P6SM SCT035 BKN040
     FM010300 28007KT P6SM -SHRA SCT025 OVC040
     FM010700 VRB06KT P6SM -SHRA SCT025 OVC035
     FM011100 VRB03KT P6SM -SHRA VCTS SCT025CB BKN035 PROB30
      0111/0115 22020KT -TSRA OVC030CB
     FM011500 VRB03KT P6SM -SHRA SCT025 BKN040
     FM012100 16007KT P6SM -SHRA SCT025 BKN045=



000
FTUS46 KLOX 282300 RRA
TAFPMD
TAF
KPMD 282340Z 0100/0124 25022G32KT P6SM -SHRA BKN025 BKN040
     FM010300 25014G22KT 6SM -SHRA BKN025 OVC035
     FM010800 26010KT 6SM -SHRA BKN025 OVC040
     FM011400 VRB03KT P6SM VCSH SCT025 BKN035
     FM011700 15008KT P6SM VCSH SCT015 BKN025
     FM012000 28010KT P6SM VCSH SCT015 OVC025=



000
FTUS46 KLOX 282300 RRA
TAFSBP
TAF
KSBP 282340Z 0100/0124 33009KT 6SM -SHRA BR VCTS SCT025CB BKN040
      TEMPO 0100/0103 3SM SHRA BR BKN025
     FM010300 34005KT P6SM -SHRA VCTS SCT025CB OVC035
     FM010700 VRB03KT P6SM VCSH SCT025 BKN040
     FM011100 VRB03KT P6SM SCT025 OVC040
     FM011700 VRB03KT P6SM VCSH SCT030 BKN050
     FM012100 29008KT P6SM VCSH SCT035 BKN070=



000
FTUS46 KLOX 282300 RRA
TAFPRB
TAF
KPRB 282340Z 0100/0124 22010KT P6SM -SHRA VCTS SCT025 BKN035CB
     FM010700 VRB03KT P6SM VCSH SCT025 BKN040
     FM011100 VRB03KT P6SM SCT025 BKN035
     FM011700 VRB03KT P6SM VCSH SCT025 BKN040
     FM012200 16005KT P6SM VCSH SCT040 BKN070=



000
FTUS46 KLOX 282300 RRA
TAFWJF
TAF
KWJF 282340Z 0100/0124 25022G32KT P6SM -SHRA SCT025 BKN040
     FM010300 25012KT 6SM -SHRA BKN025 OVC035
     FM010800 26008KT 6SM -SHRA BKN025 OVC040
     FM011400 VRB03KT P6SM VCSH SCT025 BKN035
     FM011700 23007KT P6SM VCSH SCT015 BKN025
     FM012000 25010KT P6SM VCSH SCT015 OVC025=



000
FTUS46 KLOX 282300 RRA
TAFPMD
TAF
KPMD 282340Z 0100/0124 25022G32KT P6SM -SHRA BKN025 BKN040
     FM010300 25014G22KT 6SM -SHRA BKN025 OVC035
     FM010800 26010KT 6SM -SHRA BKN025 OVC040
     FM011400 VRB03KT P6SM VCSH SCT025 BKN035
     FM011700 15008KT P6SM VCSH SCT015 BKN025
     FM012000 28010KT P6SM VCSH SCT015 OVC025=



000
FTUS46 KLOX 282300 RRA
TAFLGB
TAF
KLGB 282340Z 0100/0124 25012G20KT P6SM SCT035 BKN045
     FM010300 28007KT P6SM -SHRA SCT025 OVC040
     FM010700 VRB06KT P6SM -SHRA SCT025 OVC035
     FM011100 VRB03KT P6SM -SHRA VCTS SCT025CB BKN035 PROB30
      0111/0115 22020KT -TSRA OVC030CB
     FM011500 VRB03KT P6SM -SHRA SCT025 BKN040
     FM012100 16007KT P6SM -SHRA SCT025 BKN045=



000
FTUS46 KLOX 282300 RRA
TAFWJF
TAF
KWJF 282340Z 0100/0124 25022G32KT P6SM -SHRA SCT025 BKN040
     FM010300 25012KT 6SM -SHRA BKN025 OVC035
     FM010800 26008KT 6SM -SHRA BKN025 OVC040
     FM011400 VRB03KT P6SM VCSH SCT025 BKN035
     FM011700 23007KT P6SM VCSH SCT015 BKN025
     FM012000 25010KT P6SM VCSH SCT015 OVC025=



000
FTUS46 KLOX 282300 RRA
TAFSMX
TAF
KSMX 282340Z 0100/0124 28009KT 6SM -SHRA BR SCT025 BKN040
     FM010300 26005KT P6SM -SHRA SCT025 OVC035
     FM010700 VRB03KT P6SM VCSH SCT025 BKN040
     FM011100 VRB03KT P6SM SCT025 BKN040
     FM011700 VRB03KT P6SM VCSH SCT030 BKN045
     FM012100 25008KT P6SM VCSH SCT035 BKN070=



000
FTUS46 KLOX 282300 RRA
TAFVNY
TAF
KVNY 282340Z 0100/0124 20012KT P6SM VCSH BKN040 BKN070
     FM010300 17007KT 6SM -SHRA SCT025 BKN035
     FM010600 VRB03KT 5SM -SHRA SCT025 OVC035 PROB30 0111/0115
      22020KT -TSRA OVC030CB
     FM011500 VRB03KT P6SM -SHRA SCT025 OVC040
     FM011800 15007KT P6SM -SHRA SCT025 OVC050=



000
FTUS46 KLOX 282300 RRA
TAFPRB
TAF
KPRB 282340Z 0100/0124 22010KT P6SM -SHRA VCTS SCT025 BKN035CB
     FM010700 VRB03KT P6SM VCSH SCT025 BKN040
     FM011100 VRB03KT P6SM SCT025 BKN035
     FM011700 VRB03KT P6SM VCSH SCT025 BKN040
     FM012200 16005KT P6SM VCSH SCT040 BKN070=



000
FTUS46 KLOX 282300 RRA
TAFLAX
TAF
KLAX 282340Z 0100/0206 25015G20KT P6SM SCT030 BKN200
     FM010200 28012KT 6SM -SHRA SCT025 BKN040
     FM010700 08009KT 6SM -SHRA BR SCT025 OVC035
     FM011100 08007KT P6SM -SHRA VCTS SCT025CB BKN035 PROB30
      0111/0115 20020KT -TSRA OVC025CB
     FM011800 13005KT P6SM -SHRA SCT025 OVC040
     FM012000 24011KT P6SM -SHRA SCT025 OVC045
     FM020400 25006KT P6SM VCSH SCT025 BKN035=



000
FTUS46 KLOX 282300 RRA
TAFSBP
TAF
KSBP 282340Z 0100/0124 33009KT 6SM -SHRA BR VCTS SCT025CB BKN040
      TEMPO 0100/0103 3SM SHRA BR BKN025
     FM010300 34005KT P6SM -SHRA VCTS SCT025CB OVC035
     FM010700 VRB03KT P6SM VCSH SCT025 BKN040
     FM011100 VRB03KT P6SM SCT025 OVC040
     FM011700 VRB03KT P6SM VCSH SCT030 BKN050
     FM012100 29008KT P6SM VCSH SCT035 BKN070=



000
FTUS46 KLOX 282300 RRA
TAFLGB
TAF
KLGB 282340Z 0100/0124 25012G20KT P6SM SCT035 BKN045
     FM010300 28007KT P6SM -SHRA SCT025 OVC040
     FM010700 VRB06KT P6SM -SHRA SCT025 OVC035
     FM011100 VRB03KT P6SM -SHRA VCTS SCT025CB BKN035 PROB30
      0111/0115 22020KT -TSRA OVC030CB
     FM011500 VRB03KT P6SM -SHRA SCT025 BKN040
     FM012100 16007KT P6SM -SHRA SCT025 BKN045=



000
FTUS46 KLOX 282300 RRA
TAFBUR
TAF
KBUR 282340Z 0100/0124 18012KT P6SM VCSH SCT025 OVC050
     FM010300 18007KT 6SM -SHRA OVC035
     FM010600 VRB03KT 6SM -SHRA OVC035 PROB30 0111/0115 22020KT
      -TSRA OVC030CB
     FM011500 08006KT P6SM -SHRA SCT025 OVC040
     FM011800 16007KT P6SM -SHRA SCT025 OVC050=



000
FTUS46 KLOX 282300 RRA
TAFSBA
TAF
KSBA 282340Z 0100/0124 26012KT P6SM VCSH SCT040
     FM010200 33007KT 6SM -SHRA SCT025 BKN050
     FM010800 VRB03KT 6SM -SHRA SCT015 BKN035 BKN070
     FM011200 VRB03KT P6SM VCSH SCT025 OVC040
     FM011700 15004KT P6SM VCSH SCT025 BKN045
     FM012000 19006KT P6SM VCSH SCT030 BKN050
      TEMPO 0120/0122 6SM -SHRA BKN035
     FM012200 29010KT P6SM VCSH SCT025 BKN040
      TEMPO 0122/0124 6SM -SHRA BKN035=



000
FTUS46 KLOX 282300 RRA
TAFVNY
TAF
KVNY 282340Z 0100/0124 20012KT P6SM VCSH BKN040 BKN070
     FM010300 17007KT 6SM -SHRA SCT025 BKN035
     FM010600 VRB03KT 5SM -SHRA SCT025 OVC035 PROB30 0111/0115
      22020KT -TSRA OVC030CB
     FM011500 VRB03KT P6SM -SHRA SCT025 OVC040
     FM011800 15007KT P6SM -SHRA SCT025 OVC050=



000
FTUS46 KLOX 282300 RRA
TAFLAX
TAF
KLAX 282340Z 0100/0206 25015G20KT P6SM SCT030 BKN200
     FM010200 28012KT 6SM -SHRA SCT025 BKN040
     FM010700 08009KT 6SM -SHRA BR SCT025 OVC035
     FM011100 08007KT P6SM -SHRA VCTS SCT025CB BKN035 PROB30
      0111/0115 20020KT -TSRA OVC025CB
     FM011800 13005KT P6SM -SHRA SCT025 OVC040
     FM012000 24011KT P6SM -SHRA SCT025 OVC045
     FM020400 25006KT P6SM VCSH SCT025 BKN035=



000
FTUS46 KLOX 282300 RRA
TAFBUR
TAF
KBUR 282340Z 0100/0124 18012KT P6SM VCSH SCT025 OVC050
     FM010300 18007KT 6SM -SHRA OVC035
     FM010600 VRB03KT 6SM -SHRA OVC035 PROB30 0111/0115 22020KT
      -TSRA OVC030CB
     FM011500 08006KT P6SM -SHRA SCT025 OVC040
     FM011800 16007KT P6SM -SHRA SCT025 OVC050=



000
FTUS46 KLOX 282300 RRA
TAFSBA
TAF
KSBA 282340Z 0100/0124 26012KT P6SM VCSH SCT040
     FM010200 33007KT 6SM -SHRA SCT025 BKN050
     FM010800 VRB03KT 6SM -SHRA SCT015 BKN035 BKN070
     FM011200 VRB03KT P6SM VCSH SCT025 OVC040
     FM011700 15004KT P6SM VCSH SCT025 BKN045
     FM012000 19006KT P6SM VCSH SCT030 BKN050
      TEMPO 0120/0122 6SM -SHRA BKN035
     FM012200 29010KT P6SM VCSH SCT025 BKN040
      TEMPO 0122/0124 6SM -SHRA BKN035=



000
FTUS46 KLOX 282300 RRA
TAFSMX
TAF
KSMX 282340Z 0100/0124 28009KT 6SM -SHRA BR SCT025 BKN040
     FM010300 26005KT P6SM -SHRA SCT025 OVC035
     FM010700 VRB03KT P6SM VCSH SCT025 BKN040
     FM011100 VRB03KT P6SM SCT025 BKN040
     FM011700 VRB03KT P6SM VCSH SCT030 BKN045
     FM012100 25008KT P6SM VCSH SCT035 BKN070=



000
FTUS46 KLOX 282200 AAA
TAFPRB
TAF AMD
KPRB 282216Z 2822/0118 24011KT 6SM -SHRA SCT025 BKN040 OVC080
     FM282300 24008KT P6SM -SHRA VCTS SCT025 OVC035CB
     FM010700 VRB03KT P6SM VCSH SCT025 BKN040
     FM011100 VRB03KT 5SM BR BKN020=



000
FTUS46 KLOX 282100 AAA
TAFVNY
TAF AMD
KVNY 282159Z 2822/0118 20009KT P6SM VCSH BKN050 BKN070
     FM010300 17007KT 6SM -SHRA SCT025 BKN035
     FM010600 VRB03KT 5SM -SHRA SCT015 OVC035 PROB30 0111/0115
      22019KT -TSRA OVC030CB=



000
FTUS46 KLOX 282100 AAC
TAFLAX
TAF AMD
KLAX 282157Z 2822/0124 25015G20KT P6SM SCT030 SCT160 BKN250
     FM010200 28012KT P6SM -SHRA SCT015 OVC030
     FM010700 VRB06KT P6SM -SHRA SCT015 OVC030
     FM011100 VRB06KT P6SM SCT025 BKN035 PROB30 0111/0115 22019KT
      -TSRA OVC030CB
     FM011900 19008KT P6SM SCT025 BKN040=



000
FTUS46 KLOX 282000 AAB
TAFLAX
TAF AMD
KLAX 282035Z 2821/0124 27013G17KT P6SM SCT030 SCT160 BKN230
     FM282200 27018G25KT P6SM SCT025 SCT040 BKN250
     FM010200 28012KT P6SM -SHRA SCT015 OVC030
     FM010700 VRB06KT P6SM -SHRA SCT015 OVC030
     FM011100 VRB06KT P6SM SCT025 BKN035 PROB30 0111/0115 22019KT
      -TSRA OVC030CB
     FM011900 19008KT P6SM SCT025 BKN040=



000
FTUS46 KLOX 282000 AAB
TAFLAX
TAF AMD
KLAX 282035Z 2821/0124 27013G17KT P6SM SCT030 SCT160 BKN230
     FM282200 27018G25KT P6SM SCT025 SCT040 BKN250
     FM010200 28012KT P6SM -SHRA SCT015 OVC030
     FM010700 VRB06KT P6SM -SHRA SCT015 OVC030
     FM011100 VRB06KT P6SM SCT025 BKN035 PROB30 0111/0115 22019KT
      -TSRA OVC030CB
     FM011900 19008KT P6SM SCT025 BKN040=



000
FTUS46 KLOX 282000 AAA
TAFSBA
TAF AMD
KSBA 282000Z 2820/0118 25012G18KT P6SM SCT040 SCT070
     FM282100 27013KT P6SM -SHRA SCT025 BKN040
     FM010200 33007KT 6SM -SHRA SCT025 BKN050
     FM010800 VRB03KT 6SM -SHRA SCT015 BKN035 BKN070 PROB30
      0108/0112 25020KT -TSRA OVC035CB=



000
FTUS46 KLOX 281900 AAA
TAFLAX
TAF AMD
KLAX 281916Z 2819/0124 27015KT P6SM SCT030 SCT040 BKN180
     FM282200 27018G25KT P6SM SCT025 BKN040
     FM010300 28012KT P6SM -SHRA SCT015 OVC030
     FM010700 VRB06KT P6SM -SHRA SCT015 OVC030
     FM011100 VRB06KT P6SM SCT025 BKN035 PROB30 0111/0115 22019KT
      -TSRA OVC030CB
     FM011900 19008KT P6SM SCT025 BKN040=



000
FTUS46 KLOX 281900 AAA
TAFLAX
TAF AMD
KLAX 281916Z 2819/0124 27015KT P6SM SCT030 SCT040 BKN180
     FM282200 27018G25KT P6SM SCT025 BKN040
     FM010300 28012KT P6SM -SHRA SCT015 OVC030
     FM010700 VRB06KT P6SM -SHRA SCT015 OVC030
     FM011100 VRB06KT P6SM SCT025 BKN035 PROB30 0111/0115 22019KT
      -TSRA OVC030CB
     FM011900 19008KT P6SM SCT025 BKN040=



000
FTUS46 KLOX 281700
TAFLGB
TAF
KLGB 281740Z 2818/0118 25012KT P6SM SCT035 BKN045
     FM010300 28007KT P6SM -SHRA SCT015 OVC030
     FM010700 VRB06KT P6SM -SHRA SCT015 OVC030
     FM011100 VRB03KT P6SM SCT025 BKN035 PROB30 0111/0115 22019KT
      -TSRA OVC030CB=



000
FTUS46 KLOX 281700
TAFSBA
TAF
KSBA 281740Z 2818/0118 31007KT P6SM SCT040 SCT070
     FM282100 29013KT P6SM -SHRA SCT025 BKN040
     FM010200 33007KT 6SM -SHRA SCT025 BKN050
     FM010800 VRB03KT 6SM -SHRA SCT015 BKN035 BKN070 PROB30
      0108/0112 25020KT -TSRA OVC035CB=



000
FTUS46 KLOX 281700
TAFWJF
TAF
KWJF 281740Z 2818/0118 26013KT P6SM SCT120 BKN250
     FM282200 25022G32KT P6SM -SHRA SCT025 BKN040
     FM010300 25014G22KT 6SM -SHRA VCTS BKN025CB OVC035
     FM010800 26010KT 6SM -SHRA VCTS BKN025CB OVC040=



000
FTUS46 KLOX 281700
TAFBUR
TAF
KBUR 281740Z 2818/0118 18004KT P6SM BKN025 OVC030
     FM281900 18010KT P6SM VCSH SCT020 OVC035
     FM282100 18012KT 6SM -SHRA SCT020 OVC035
     FM010300 18007KT 6SM -SHRA OVC035
     FM010600 VRB03KT 6SM -SHRA OVC035 PROB30 0111/0115 22019KT
      -TSRA OVC030CB=



000
FTUS46 KLOX 281700
TAFPMD
TAF
KPMD 281740Z 2818/0118 29013KT P6SM SCT120 BKN250
     FM282200 25022G32KT P6SM -SHRA BKN025 BKN040
     FM010300 25014G22KT 6SM -SHRA VCTS BKN025CB OVC035
     FM010800 26010KT 6SM -SHRA VCTS BKN025CB OVC040=



000
FTUS46 KLOX 281700
TAFLAX
TAF
KLAX 281740Z 2818/0124 27015G22KT P6SM SCT030 SCT040 BKN180
      TEMPO 2818/2820 BKN030
     FM282200 27018G25KT P6SM SCT025 BKN040
     FM010300 28012KT P6SM -SHRA SCT015 OVC030
     FM010700 VRB06KT P6SM -SHRA SCT015 OVC030
     FM011100 VRB06KT P6SM SCT025 BKN035 PROB30 0111/0115 22019KT
      -TSRA OVC030CB
     FM011900 19008KT P6SM SCT025 BKN040=



000
FTUS46 KLOX 281700
TAFSMX
TAF
KSMX 281740Z 2818/0118 VRB03KT P6SM SCT035 BKN070
      TEMPO 2818/2820 -SHRA BKN030
     FM282000 28009KT 6SM -SHRA SCT025 BKN040
      TEMPO 2820/2824 BKN024
     FM010300 21008KT P6SM -SHRA SCT025 OVC035
     FM010700 VRB03KT P6SM VCSH SCT025 BKN040
     FM011100 VRB03KT 5SM BR BKN020=



000
FTUS46 KLOX 281700
TAFSBP
TAF
KSBP 281740Z 2818/0118 VRB03KT P6SM SCT030 BKN070 BKN090
     FM282000 28009KT 6SM -SHRA SCT025 BKN040
      TEMPO 2820/2824 BKN030
     FM010300 21008KT P6SM -SHRA VCTS SCT025CB OVC035
     FM010700 VRB03KT P6SM VCSH SCT025 BKN040
     FM011100 VRB03KT 5SM BR BKN020=



000
FTUS46 KLOX 281700
TAFPRB
TAF
KPRB 281740Z 2818/0118 17004KT P6SM SCT040 BKN060
     FM282000 24009KT 6SM -SHRA SCT025 BKN040
      TEMPO 2820/2824 BKN030
     FM010300 21008KT P6SM -SHRA VCTS SCT025CB OVC035
     FM010700 VRB03KT P6SM VCSH SCT025 BKN040
     FM011100 VRB03KT 5SM BR BKN020=



000
FTUS46 KLOX 281700
TAFVNY
TAF
KVNY 281740Z 2818/0118 22005KT P6SM SCT035 BKN250
     FM281900 16010KT P6SM VCSH BKN035
     FM282100 17012KT 6SM -SHRA BKN015 OVC035
     FM010300 17007KT 6SM -SHRA BKN015 OVC025
     FM010600 VRB03KT 5SM -SHRA SCT015 OVC035 PROB30 0111/0115
      22019KT -TSRA OVC030CB=



000
FTUS46 KLOX 281600 AAA
TAFSMX
TAF AMD
KSMX 281642Z 2817/0112 17005KT P6SM SCT040 BKN050
      TEMPO 2817/2821 4SM -SHRA BR BKN030
     FM282100 29012KT 6SM -SHRA VCTS SCT015CB OVC025
     FM010300 VRB03KT P6SM -SHRA VCTS SCT025CB OVC040
     FM010700 VRB03KT P6SM VCSH SCT025 BKN040=



000
FTUS46 KLOX 281500 AAA
TAFPRB
TAF AMD
KPRB 281552Z 2816/0112 VRB03KT P6SM SCT035 BKN080
     FM282000 22014KT 6SM -SHRA VCTS SCT015CB OVC025
     FM010300 21008KT P6SM -SHRA VCTS SCT025CB OVC035
     FM010700 VRB03KT P6SM VCSH SCT025 BKN040=



000
FTUS46 KLOX 281400 AAA
TAFPMD
TAF AMD
KPMD 281452Z 2815/0112 28015KT P6SM SCT025 BKN035 BKN050
      TEMPO 2815/2817 BKN025
     FM281700 27018G24KT P6SM SCT025 BKN050
     FM282200 25022G32KT P6SM -SHRA BKN025 BKN040
     FM010300 25014G22KT 6SM -SHRA VCTS BKN025CB OVC035
     FM010800 26010KT 6SM -SHRA VCTS BKN025CB OVC040=



000
FTUS46 KLOX 281400 AAA
TAFPMD
TAF AMD
KPMD 281452Z 2815/0112 28015KT P6SM SCT025 BKN035 BKN050
      TEMPO 2815/2817 BKN025
     FM281700 27018G24KT P6SM SCT025 BKN050
     FM282200 25022G32KT P6SM -SHRA BKN025 BKN040
     FM010300 25014G22KT 6SM -SHRA VCTS BKN025CB OVC035
     FM010800 26010KT 6SM -SHRA VCTS BKN025CB OVC040=



000
FTUS46 KLOX 281400 AAA
TAFLAX
TAF AMD
KLAX 281450Z 2815/0118 28008KT P6SM SCT030 SCT180
      TEMPO 2815/2817 BKN030
     FM281900 27015KT P6SM VCSH BKN025 OVC040
     FM282200 27018G25KT P6SM -SHRA BKN025 OVC035
     FM010300 28012KT 5SM -SHRA VCTS SCT015CB OVC025
     FM010800 VRB03KT 5SM -SHRA VCTS SCT015CB OVC025
     FM011500 VRB03KT P6SM VCSH SCT025 BKN035=



000
FTUS46 KLOX 281400 AAA
TAFLAX
TAF AMD
KLAX 281450Z 2815/0118 28008KT P6SM SCT030 SCT180
      TEMPO 2815/2817 BKN030
     FM281900 27015KT P6SM VCSH BKN025 OVC040
     FM282200 27018G25KT P6SM -SHRA BKN025 OVC035
     FM010300 28012KT 5SM -SHRA VCTS SCT015CB OVC025
     FM010800 VRB03KT 5SM -SHRA VCTS SCT015CB OVC025
     FM011500 VRB03KT P6SM VCSH SCT025 BKN035=



000
FTUS46 KLOX 281400 AAA
TAFVNY
TAF AMD
KVNY 281412Z 2814/0112 VRB03KT P6SM SCT025 OVC040
     FM281900 16010KT P6SM VCSH BKN020 OVC035
     FM282100 17012KT 6SM -SHRA BKN015 OVC035
     FM010300 17007KT 5SM -SHRA VCTS BKN015CB OVC025
     FM010600 VRB03KT 5SM -SHRA VCTS BKN015CB OVC025=



000
FTUS46 KLOX 281100
TAFWJF
TAF
KWJF 281127Z 2812/0112 28015KT P6SM SCT025 OVC050
     FM281700 27018G24KT P6SM SCT025 BKN050
     FM282200 25022G32KT P6SM -SHRA SCT025 BKN040
     FM010300 25014G22KT 6SM -SHRA VCTS BKN025CB OVC035
     FM010800 26010KT 6SM -SHRA VCTS BKN025CB OVC040=



000
FTUS46 KLOX 281100
TAFPRB
TAF
KPRB 281127Z 2812/0112 VRB03KT P6SM VCSH SCT025 OVC040
      TEMPO 2812/2815 BKN025
     FM281500 VRB03KT P6SM -SHRA BKN025 OVC035
     FM282000 22014KT 6SM -SHRA VCTS SCT015CB OVC025
     FM010300 21008KT P6SM -SHRA VCTS SCT025CB OVC035
     FM010700 VRB03KT P6SM VCSH SCT025 BKN040=



000
FTUS46 KLOX 281100
TAFLAX
TAF
KLAX 281127Z 2812/0118 28012KT P6SM BKN025 OVC035
     FM281500 28010KT P6SM SCT025 BKN040
     FM281900 27015KT P6SM VCSH BKN025 OVC040
     FM282200 27018G25KT P6SM -SHRA BKN025 OVC035
     FM010300 28012KT 5SM -SHRA VCTS SCT015CB OVC025
     FM010800 VRB03KT 5SM -SHRA VCTS SCT015CB OVC025
     FM011500 VRB03KT P6SM VCSH SCT025 BKN035=



000
FTUS46 KLOX 281100
TAFLGB
TAF
KLGB 281127Z 2812/0112 28010KT P6SM SCT025 BKN035
     FM281900 27014KT P6SM VCSH BKN025 OVC040
     FM282200 27016KT P6SM -SHRA BKN025 OVC035
     FM010300 28010KT 5SM -SHRA VCTS SCT015CB OVC025
     FM010800 VRB03KT 5SM -SHRA VCTS SCT015CB OVC025=



000
FTUS46 KLOX 281100
TAFSBA
TAF
KSBA 281127Z 2812/0112 32007KT P6SM SCT050
     FM281500 VRB03KT P6SM BKN050
     FM281800 22010KT P6SM VCSH SCT025 BKN040
     FM282100 27015KT P6SM -SHRA BKN025 OVC040
     FM010200 33007KT 6SM -SHRA VCTS SCT015CB OVC025
     FM010800 VRB03KT 6SM -SHRA VCTS SCT015CB OVC025=



000
FTUS46 KLOX 281100
TAFVNY
TAF
KVNY 281127Z 2812/0112 VRB03KT P6SM BKN025 OVC040
     FM281900 16010KT P6SM VCSH BKN020 OVC035
     FM282100 17012KT 6SM -SHRA BKN015 OVC035
     FM010300 17007KT 5SM -SHRA VCTS BKN015CB OVC025
     FM010600 VRB03KT 5SM -SHRA VCTS BKN015CB OVC025=



000
FTUS46 KLOX 281100
TAFSMX
TAF
KSMX 281127Z 2812/0112 VRB03KT P6SM SCT025 BKN040
     FM281500 VRB03KT P6SM -SHRA BKN025 OVC035
     FM282100 29012KT 6SM -SHRA VCTS SCT015CB OVC025
     FM010300 VRB03KT P6SM -SHRA VCTS SCT025CB OVC040
     FM010700 VRB03KT P6SM VCSH SCT025 BKN040=



000
FTUS46 KLOX 281100
TAFSBP
TAF
KSBP 281127Z 2812/0112 VRB03KT P6SM VCSH BKN025 BKN040
     FM281400 VRB03KT P6SM -SHRA BKN025 OVC035
     FM282100 29012KT 6SM -SHRA VCTS SCT015CB OVC025
     FM010300 VRB03KT P6SM -SHRA VCTS SCT025CB OVC040
     FM010700 VRB03KT P6SM VCSH SCT025 BKN040=



000
FTUS46 KLOX 281100
TAFBUR
TAF
KBUR 281127Z 2812/0112 VRB03KT P6SM SCT025 OVC040
     FM281400 VRB03KT P6SM BKN025 OVC040
     FM281900 18010KT P6SM VCSH BKN020 OVC035
     FM282100 18012KT 6SM -SHRA BKN015 OVC035
     FM010300 18007KT 5SM -SHRA VCTS BKN015CB OVC025
     FM010600 VRB03KT 5SM -SHRA VCTS BKN015CB OVC025=



000
FTUS46 KLOX 281100
TAFPMD
TAF
KPMD 281127Z 2812/0112 28015KT P6SM BKN025 OVC050
     FM281700 27018G24KT P6SM SCT025 BKN050
     FM282200 25022G32KT P6SM -SHRA SCT025 BKN040
     FM010300 25014G22KT 6SM -SHRA VCTS BKN025CB OVC035
     FM010800 26010KT 6SM -SHRA VCTS BKN025CB OVC040=



000
FTUS46 KLOX 281000 AAC
TAFBUR
TAF AMD
KBUR 281000Z 2810/0106 15007KT P6SM BKN025 OVC035
     FM281200 VRB03KT P6SM BKN020 OVC030
     FM281700 17008KT P6SM VCSH SCT025 BKN040
      TEMPO 2817/2821 6SM -SHRA BR BKN025
     FM282100 19010KT 6SM -SHRA BKN025 OVC035
     FM010400 VRB03KT P6SM VCSH SCT025 BKN035=



000
FTUS46 KLOX 280900 AAB
TAFLAX
TAF AMD
KLAX 280959Z 2810/0112 25015KT P6SM BKN025 BKN035
     FM281200 28012KT P6SM BKN025 OVC035
     FM281700 29018G25KT P6SM VCSH SCT025 BKN040
      TEMPO 2817/2821 6SM -SHRA BR BKN025
     FM282100 26018G25KT 6SM -SHRA BKN025 OVC035
     FM010400 29010KT P6SM VCSH SCT025 BKN035=



000
FTUS46 KLOX 280900 AAB
TAFBUR
TAF AMD
KBUR 280933Z 2810/0106 15007KT P6SM BKN015 OVC035
     FM281200 VRB03KT P6SM BKN020 OVC030
     FM281700 17008KT P6SM VCSH SCT025 BKN040
      TEMPO 2817/2821 6SM -SHRA BR BKN025
     FM282100 19010KT 6SM -SHRA BKN025 OVC035
     FM010400 VRB03KT P6SM VCSH SCT025 BKN035=



000
FTUS46 KLOX 280900 AAA
TAFSBP
TAF AMD
KSBP 280912Z 2809/0106 VRB03KT P6SM VCSH BKN025 OVC035
     FM281500 VRB03KT 6SM -SHRA BR SCT015 OVC025
     FM281900 29009KT 6SM -SHRA BR SCT025 BKN035
     FM010400 VRB03KT P6SM VCSH OVC030=



000
FTUS46 KLOX 280900 AAB
TAFVNY
TAF AMD
KVNY 280912Z 2809/0106 VRB03KT P6SM BKN020 OVC035
     FM281700 14008KT P6SM VCSH SCT025 BKN040
      TEMPO 2817/2821 6SM -SHRA BR BKN025
     FM282100 15010KT 6SM -SHRA BKN025 OVC035
     FM010400 VRB03KT P6SM VCSH SCT025 BKN035=



000
FTUS46 KLOX 280900 AAA
TAFBUR
TAF AMD
KBUR 280912Z 2809/0106 15007KT P6SM SCT020 OVC035
     FM281200 VRB03KT P6SM BKN020 OVC030
     FM281700 17008KT P6SM VCSH SCT025 BKN040
      TEMPO 2817/2821 6SM -SHRA BR BKN025
     FM282100 19010KT 6SM -SHRA BKN025 OVC035
     FM010400 VRB03KT P6SM VCSH SCT025 BKN035=



000
FTUS46 KLOX 280800 AAA
TAFLAX
TAF AMD
KLAX 280850Z 2809/0112 25015KT P6SM SCT025 BKN035
     FM281200 28012KT P6SM BKN025 OVC035
     FM281700 29018G25KT P6SM VCSH SCT025 BKN040
      TEMPO 2817/2821 6SM -SHRA BR BKN025
     FM282100 26018G25KT 6SM -SHRA BKN025 OVC035
     FM010400 29010KT P6SM VCSH SCT025 BKN035=



000
FTUS46 KLOX 280700 AAA
TAFVNY
TAF AMD
KVNY 280758Z 2808/0106 12007KT P6SM SCT020 OVC035
     FM281200 VRB03KT P6SM BKN020 OVC030
     FM281700 14008KT P6SM VCSH SCT025 BKN040
      TEMPO 2817/2821 6SM -SHRA BR BKN025
     FM282100 15010KT 6SM -SHRA BKN025 OVC035
     FM010400 VRB03KT P6SM VCSH SCT025 BKN035=



000
FTUS46 KLOX 280500 RRA
TAFLAX
TAF
KLAX 280547Z 2806/0112 25015KT P6SM SCT025 BKN035
     FM281200 28012KT P6SM BKN025 OVC035
     FM281700 29018G25KT P6SM VCSH SCT025 BKN040
      TEMPO 2817/2821 6SM -SHRA BR BKN025
     FM282100 26018G25KT 6SM -SHRA BKN025 OVC035
     FM010400 29010KT P6SM VCSH SCT025 BKN035=



000
FTUS46 KLOX 280500 RRA
TAFVNY
TAF
KVNY 280547Z 2806/0106 12007KT P6SM SCT020 OVC030
     FM281200 VRB03KT P6SM BKN020 OVC030
     FM281700 14008KT P6SM VCSH SCT025 BKN040
      TEMPO 2817/2821 6SM -SHRA BR BKN025
     FM282100 15010KT 6SM -SHRA BKN025 OVC035
     FM010400 VRB03KT P6SM VCSH SCT025 BKN035=



000
FTUS46 KLOX 280500 RRA
TAFPMD
TAF
KPMD 280547Z 2806/0106 23012KT P6SM SCT025 BKN050
     FM281800 27015G25KT P6SM VCSH SCT025 BKN035
      TEMPO 2818/2822 6SM -SHRA BR BKN035
     FM282200 25022G32KT P6SM VCSH BKN025 OVC035
      TEMPO 2822/0102 6SM -SHRA BR BKN015 OVC025
     FM010500 26015KT P6SM VCSH SCT025 BKN040=



000
FTUS46 KLOX 280500 RRA
TAFSMX
TAF
KSMX 280547Z 2806/0106 31007KT P6SM SCT025 OVC035
     FM281100 VRB03KT P6SM VCSH SCT015 OVC025
     FM281500 VRB03KT 6SM -SHRA BR SCT025 OVC035
     FM281900 27011KT 6SM -SHRA BR SCT025 OVC040
     FM010400 VRB03KT P6SM VCSH OVC030=



000
FTUS46 KLOX 280500 RRA
TAFWJF
TAF
KWJF 280547Z 2806/0106 23012KT P6SM SCT025 BKN050
     FM281800 27015G25KT P6SM VCSH SCT025 BKN035
      TEMPO 2818/2822 6SM -SHRA BR BKN035
     FM282200 25022G32KT P6SM VCSH BKN025 OVC035
      TEMPO 2822/0102 6SM -SHRA BR BKN015 OVC025
     FM010500 26015KT P6SM VCSH SCT025 BKN040=



000
FTUS46 KLOX 280500 RRA
TAFPRB
TAF
KPRB 280547Z 2806/0106 30008KT P6SM SCT035 OVC050
     FM281100 VRB03KT P6SM VCSH SCT025 OVC040
     FM281500 10005KT P6SM SCT025 OVC040
      TEMPO 2815/2818 P6SM -SHRA OVC035
     FM281800 30006KT 6SM -SHRA BR SCT025 BKN040
     FM282100 22012KT 6SM -SHRA BR SCT025 OVC035
     FM010500 VRB03KT P6SM VCSH OVC030=



000
FTUS46 KLOX 280500 RRA
TAFSMX
TAF
KSMX 280547Z 2806/0106 31007KT P6SM SCT025 OVC035
     FM281100 VRB03KT P6SM VCSH SCT015 OVC025
     FM281500 VRB03KT 6SM -SHRA BR SCT025 OVC035
     FM281900 27011KT 6SM -SHRA BR SCT025 OVC040
     FM010400 VRB03KT P6SM VCSH OVC030=



000
FTUS46 KLOX 280500 RRA
TAFBUR
TAF
KBUR 280547Z 2806/0106 15007KT P6SM SCT020 OVC030
     FM281200 VRB03KT P6SM BKN020 OVC030
     FM281700 17008KT P6SM VCSH SCT025 BKN040
      TEMPO 2817/2821 6SM -SHRA BR BKN025
     FM282100 19010KT 6SM -SHRA BKN025 OVC035
     FM010400 VRB03KT P6SM VCSH SCT025 BKN035=



000
FTUS46 KLOX 280500 RRA
TAFSBP
TAF
KSBP 280547Z 2806/0106 31007KT P6SM SCT025 BKN040
     FM281100 VRB03KT P6SM VCSH BKN025 OVC035
     FM281500 VRB03KT 6SM -SHRA BR SCT015 OVC025
     FM281900 29009KT 6SM -SHRA BR SCT025 BKN035
     FM010400 VRB03KT P6SM VCSH OVC030=



000
FTUS46 KLOX 280500 RRA
TAFPMD
TAF
KPMD 280547Z 2806/0106 23012KT P6SM SCT025 BKN050
     FM281800 27015G25KT P6SM VCSH SCT025 BKN035
      TEMPO 2818/2822 6SM -SHRA BR BKN035
     FM282200 25022G32KT P6SM VCSH BKN025 OVC035
      TEMPO 2822/0102 6SM -SHRA BR BKN015 OVC025
     FM010500 26015KT P6SM VCSH SCT025 BKN040=



000
FTUS46 KLOX 280500 RRA
TAFLAX
TAF
KLAX 280547Z 2806/0112 25015KT P6SM SCT025 BKN035
     FM281200 28012KT P6SM BKN025 OVC035
     FM281700 29018G25KT P6SM VCSH SCT025 BKN040
      TEMPO 2817/2821 6SM -SHRA BR BKN025
     FM282100 26018G25KT 6SM -SHRA BKN025 OVC035
     FM010400 29010KT P6SM VCSH SCT025 BKN035=



000
FTUS46 KLOX 280500 RRA
TAFPRB
TAF
KPRB 280547Z 2806/0106 30008KT P6SM SCT035 OVC050
     FM281100 VRB03KT P6SM VCSH SCT025 OVC040
     FM281500 10005KT P6SM SCT025 OVC040
      TEMPO 2815/2818 P6SM -SHRA OVC035
     FM281800 30006KT 6SM -SHRA BR SCT025 BKN040
     FM282100 22012KT 6SM -SHRA BR SCT025 OVC035
     FM010500 VRB03KT P6SM VCSH OVC030=



000
FTUS46 KLOX 280500 RRA
TAFVNY
TAF
KVNY 280547Z 2806/0106 12007KT P6SM SCT020 OVC030
     FM281200 VRB03KT P6SM BKN020 OVC030
     FM281700 14008KT P6SM VCSH SCT025 BKN040
      TEMPO 2817/2821 6SM -SHRA BR BKN025
     FM282100 15010KT 6SM -SHRA BKN025 OVC035
     FM010400 VRB03KT P6SM VCSH SCT025 BKN035=



000
FTUS46 KLOX 280500 RRA
TAFSBA
TAF
KSBA 280547Z 2806/0106 33008KT P6SM SCT040 BKN150 WS010/34035KT
     FM280900 31006KT P6SM BKN035
     FM281400 VRB03KT P6SM VCSH SCT025 OVC035
     FM281800 27010KT 6SM -SHRA BR BKN025 OVC040
     FM010200 VRB03KT P6SM VCSH OVC030=



000
FTUS46 KLOX 280500 RRA
TAFLGB
TAF
KLGB 280547Z 2806/0106 22008KT P6SM SCT025 BKN035
     FM281200 26007KT P6SM BKN025 OVC035
     FM281900 24015KT P6SM VCSH SCT025 BKN040
     FM282200 26015KT 6SM -SHRA BKN025 OVC035
     FM010400 26007KT P6SM VCSH SCT025 BKN035=



000
FTUS46 KLOX 280500 RRA
TAFWJF
TAF
KWJF 280547Z 2806/0106 23012KT P6SM SCT025 BKN050
     FM281800 27015G25KT P6SM VCSH SCT025 BKN035
      TEMPO 2818/2822 6SM -SHRA BR BKN035
     FM282200 25022G32KT P6SM VCSH BKN025 OVC035
      TEMPO 2822/0102 6SM -SHRA BR BKN015 OVC025
     FM010500 26015KT P6SM VCSH SCT025 BKN040=



000
FTUS46 KLOX 280500 RRA
TAFBUR
TAF
KBUR 280547Z 2806/0106 15007KT P6SM SCT020 OVC030
     FM281200 VRB03KT P6SM BKN020 OVC030
     FM281700 17008KT P6SM VCSH SCT025 BKN040
      TEMPO 2817/2821 6SM -SHRA BR BKN025
     FM282100 19010KT 6SM -SHRA BKN025 OVC035
     FM010400 VRB03KT P6SM VCSH SCT025 BKN035=



000
FTUS46 KLOX 280500 RRA
TAFSBP
TAF
KSBP 280547Z 2806/0106 31007KT P6SM SCT025 BKN040
     FM281100 VRB03KT P6SM VCSH BKN025 OVC035
     FM281500 VRB03KT 6SM -SHRA BR SCT015 OVC025
     FM281900 29009KT 6SM -SHRA BR SCT025 BKN035
     FM010400 VRB03KT P6SM VCSH OVC030=



000
FTUS46 KLOX 280500 RRA
TAFLGB
TAF
KLGB 280547Z 2806/0106 22008KT P6SM SCT025 BKN035
     FM281200 26007KT P6SM BKN025 OVC035
     FM281900 24015KT P6SM VCSH SCT025 BKN040
     FM282200 26015KT 6SM -SHRA BKN025 OVC035
     FM010400 26007KT P6SM VCSH SCT025 BKN035=



000
FTUS46 KLOX 280500 RRA
TAFSBA
TAF
KSBA 280547Z 2806/0106 33008KT P6SM SCT040 BKN150 WS010/34035KT
     FM280900 31006KT P6SM BKN035
     FM281400 VRB03KT P6SM VCSH SCT025 OVC035
     FM281800 27010KT 6SM -SHRA BR BKN025 OVC040
     FM010200 VRB03KT P6SM VCSH OVC030=



000
FTUS46 KLOX 280300 AAA
TAFSMX
TAF AMD
KSMX 280357Z 2804/2824 31015G20KT P6SM FEW025 BKN040
     FM280600 30005KT P6SM BKN025 OVC035
     FM280800 VRB03KT P6SM VCSH SCT015 OVC025
     FM281100 VRB03KT 6SM BR VCSH SCT025 OVC035
     FM281500 VRB03KT 6SM -SHRA BR SCT025 OVC035
     FM281900 27011KT 6SM -SHRA BR SCT025 OVC040=



000
FTUS46 KLOX 280300 AAA
TAFSMX
TAF AMD
KSMX 280357Z 2804/2824 31015G20KT P6SM FEW025 BKN040
     FM280600 30005KT P6SM BKN025 OVC035
     FM280800 VRB03KT P6SM VCSH SCT015 OVC025
     FM281100 VRB03KT 6SM BR VCSH SCT025 OVC035
     FM281500 VRB03KT 6SM -SHRA BR SCT025 OVC035
     FM281900 27011KT 6SM -SHRA BR SCT025 OVC040=



000
FTUS46 KLOX 280300 AAA
TAFWJF
TAF AMD
KWJF 280303Z 2803/2824 24015KT P6SM SCT035
     FM280500 25017G25KT P6SM BKN035
     FM281700 27018G26KT P6SM VCSH SCT025 BKN035
      TEMPO 2817/2821 6SM -SHRA BR SCT025 BKN035
     FM282100 25020G30KT P6SM BKN025 OVC035
      TEMPO 2821/2824 6SM -SHRA BR SCT015 OVC025=



000
FTUS46 KLOX 280300 AAA
TAFWJF
TAF AMD
KWJF 280303Z 2803/2824 24015KT P6SM SCT035
     FM280500 25017G25KT P6SM BKN035
     FM281700 27018G26KT P6SM VCSH SCT025 BKN035
      TEMPO 2817/2821 6SM -SHRA BR SCT025 BKN035
     FM282100 25020G30KT P6SM BKN025 OVC035
      TEMPO 2821/2824 6SM -SHRA BR SCT015 OVC025=



000
FTUS46 KLOX 280300 AAA
TAFPMD
TAF AMD
KPMD 280302Z 2803/2824 23013KT P6SM SCT045
     FM280500 26015G23KT P6SM BKN035
     FM281700 27018G26KT P6SM VCSH SCT025 BKN035
      TEMPO 2817/2821 6SM -SHRA BR SCT025 BKN035
     FM282100 25020G30KT P6SM BKN025 OVC035
      TEMPO 2821/2824 6SM -SHRA BR SCT015 OVC025=



000
FTUS46 KLOX 280300 AAA
TAFPMD
TAF AMD
KPMD 280302Z 2803/2824 23013KT P6SM SCT045
     FM280500 26015G23KT P6SM BKN035
     FM281700 27018G26KT P6SM VCSH SCT025 BKN035
      TEMPO 2817/2821 6SM -SHRA BR SCT025 BKN035
     FM282100 25020G30KT P6SM BKN025 OVC035
      TEMPO 2821/2824 6SM -SHRA BR SCT015 OVC025=



000
FTUS46 KLOX 280300 AAB
TAFBUR
TAF AMD
KBUR 280301Z 2803/2824 12004KT P6SM OVC045
     FM280800 30006KT P6SM SCT025 OVC035
     FM281700 25010KT P6SM VCSH SCT025 BKN035
      TEMPO 2817/2821 6SM -SHRA BR SCT025 BKN035
     FM282100 17011KT P6SM VCSH BKN025 OVC035
      TEMPO 2821/2824 6SM -SHRA BR SCT015 OVC025=



000
FTUS46 KLOX 280300 AAB
TAFVNY
TAF AMD
KVNY 280301Z 2803/2824 VRB03KT P6SM OVC040
     FM280800 VRB03KT P6SM SCT025 BKN035
     FM281700 20004KT P6SM VCSH SCT025 BKN040
      TEMPO 2817/2821 6SM -SHRA BR SCT025 BKN035
     FM282100 17007KT P6SM VCSH BKN025 OVC035
      TEMPO 2821/2824 6SM -SHRA BR SCT015 OVC025=



000
FTUS46 KLOX 280300 AAB
TAFBUR
TAF AMD
KBUR 280301Z 2803/2824 12004KT P6SM OVC045
     FM280800 30006KT P6SM SCT025 OVC035
     FM281700 25010KT P6SM VCSH SCT025 BKN035
      TEMPO 2817/2821 6SM -SHRA BR SCT025 BKN035
     FM282100 17011KT P6SM VCSH BKN025 OVC035
      TEMPO 2821/2824 6SM -SHRA BR SCT015 OVC025=



000
FTUS46 KLOX 280300 AAB
TAFVNY
TAF AMD
KVNY 280301Z 2803/2824 VRB03KT P6SM OVC040
     FM280800 VRB03KT P6SM SCT025 BKN035
     FM281700 20004KT P6SM VCSH SCT025 BKN040
      TEMPO 2817/2821 6SM -SHRA BR SCT025 BKN035
     FM282100 17007KT P6SM VCSH BKN025 OVC035
      TEMPO 2821/2824 6SM -SHRA BR SCT015 OVC025=



000
FTUS46 KLOX 280200 AAB
TAFLAX
TAF AMD
KLAX 280257Z 2803/0106 27015KT P6SM SCT022 BKN040 BKN050
     FM280600 28015KT P6SM OVC025
     FM281100 28015KT P6SM SCT025 BKN035
     FM281500 28013KT P6SM VCSH SCT025 OVC040
     FM281700 29017G23KT P6SM VCSH SCT025 BKN040
      TEMPO 2817/2821 6SM -SHRA BR SCT025 BKN035
     FM282100 26018G25KT P6SM VCSH SCT015 BKN025
      TEMPO 2821/0101 5SM -SHRA BKN015
     FM010100 24016G22KT P6SM VCSH SCT025 BKN035
      TEMPO 0101/0105 6SM -SHRA BR SCT025 BKN035=



000
FTUS46 KLOX 280200 AAB
TAFLAX
TAF AMD
KLAX 280257Z 2803/0106 27015KT P6SM SCT022 BKN040 BKN050
     FM280600 28015KT P6SM OVC025
     FM281100 28015KT P6SM SCT025 BKN035
     FM281500 28013KT P6SM VCSH SCT025 OVC040
     FM281700 29017G23KT P6SM VCSH SCT025 BKN040
      TEMPO 2817/2821 6SM -SHRA BR SCT025 BKN035
     FM282100 26018G25KT P6SM VCSH SCT015 BKN025
      TEMPO 2821/0101 5SM -SHRA BKN015
     FM010100 24016G22KT P6SM VCSH SCT025 BKN035
      TEMPO 0101/0105 6SM -SHRA BR SCT025 BKN035=



000
FTUS46 KLOX 280100 AAA
TAFSBA
TAF AMD
KSBA 280108Z 2801/2824 36020G30KT P6SM SCT040
     FM280300 34012KT P6SM SCT040 SCT250 WS010/34035KT
     FM280900 31006KT P6SM BKN035
     FM281400 35007KT P6SM VCSH SCT025 OVC035
     FM281800 27010KT P6SM VCSH SCT025 OVC040
      TEMPO 2818/2821 6SM -SHRA BR SCT025 OVC035
     FM282100 28014KT P6SM VCSH SCT025 BKN040
      TEMPO 2821/2824 6SM -SHRA SCT025 BKN035=



000
FTUS46 KLOX 280100 AAA
TAFSBA
TAF AMD
KSBA 280108Z 2801/2824 36020G30KT P6SM SCT040
     FM280300 34012KT P6SM SCT040 SCT250 WS010/34035KT
     FM280900 31006KT P6SM BKN035
     FM281400 35007KT P6SM VCSH SCT025 OVC035
     FM281800 27010KT P6SM VCSH SCT025 OVC040
      TEMPO 2818/2821 6SM -SHRA BR SCT025 OVC035
     FM282100 28014KT P6SM VCSH SCT025 BKN040
      TEMPO 2821/2824 6SM -SHRA SCT025 BKN035=



000
FTUS46 KLOX 280100 AAA
TAFVNY
TAF AMD
KVNY 280105Z 2801/2824 21004KT P6SM OVC045
     FM280300 17004KT P6SM OVC025
     FM280800 VRB03KT P6SM SCT025 BKN035
     FM281700 20004KT P6SM VCSH SCT025 BKN040
      TEMPO 2817/2821 6SM -SHRA BR SCT025 BKN035
     FM282100 17007KT P6SM VCSH BKN025 OVC035
      TEMPO 2821/2824 6SM -SHRA BR SCT015 OVC025=



000
FTUS46 KLOX 280100 AAA
TAFBUR
TAF AMD
KBUR 280105Z 2801/2824 20005KT P6SM OVC050
     FM280300 15008KT P6SM OVC025
     FM280800 30006KT P6SM SCT025 OVC035
     FM281700 25010KT P6SM VCSH SCT025 BKN035
      TEMPO 2817/2821 6SM -SHRA BR SCT025 BKN035
     FM282100 17011KT P6SM VCSH BKN025 OVC035
      TEMPO 2821/2824 6SM -SHRA BR SCT015 OVC025=



000
FTUS46 KLOX 280100 AAA
TAFVNY
TAF AMD
KVNY 280105Z 2801/2824 21004KT P6SM OVC045
     FM280300 17004KT P6SM OVC025
     FM280800 VRB03KT P6SM SCT025 BKN035
     FM281700 20004KT P6SM VCSH SCT025 BKN040
      TEMPO 2817/2821 6SM -SHRA BR SCT025 BKN035
     FM282100 17007KT P6SM VCSH BKN025 OVC035
      TEMPO 2821/2824 6SM -SHRA BR SCT015 OVC025=



000
FTUS46 KLOX 280100 AAA
TAFBUR
TAF AMD
KBUR 280105Z 2801/2824 20005KT P6SM OVC050
     FM280300 15008KT P6SM OVC025
     FM280800 30006KT P6SM SCT025 OVC035
     FM281700 25010KT P6SM VCSH SCT025 BKN035
      TEMPO 2817/2821 6SM -SHRA BR SCT025 BKN035
     FM282100 17011KT P6SM VCSH BKN025 OVC035
      TEMPO 2821/2824 6SM -SHRA BR SCT015 OVC025=



000
FTUS46 KLOX 280100 AAA
TAFLAX
TAF AMD
KLAX 280104Z 2801/0106 26014KT P6SM SCT015 BKN020 BKN050
     FM280300 24011KT P6SM BKN025 OVC035
     FM280600 28015KT P6SM OVC025
     FM281100 28015KT P6SM SCT025 BKN035
     FM281500 28013KT P6SM VCSH SCT025 OVC040
     FM281700 29017G23KT P6SM VCSH SCT025 BKN040
      TEMPO 2817/2821 6SM -SHRA BR SCT025 BKN035
     FM282100 26018G25KT P6SM VCSH SCT015 BKN025
      TEMPO 2821/0101 5SM -SHRA BKN015
     FM010100 24016G22KT P6SM VCSH SCT025 BKN035
      TEMPO 0101/0105 6SM -SHRA BR SCT025 BKN035=



000
FTUS46 KLOX 280100 AAA
TAFSBP
TAF AMD
KSBP 280104Z 2801/2824 30015G23KT P6SM BKN020
     FM280300 31012KT P6SM SCT025 BKN040
     FM280500 31007KT P6SM SCT025 BKN040
     FM280800 28005KT P6SM BKN025 OVC035
     FM281200 VRB03KT P6SM VCSH SCT025 OVC035
     FM281500 VRB03KT 6SM -SHRA BR SCT015 OVC025
     FM281900 29009KT 6SM -SHRA BR SCT025 BKN035=



000
FTUS46 KLOX 280100 AAA
TAFLAX
TAF AMD
KLAX 280104Z 2801/0106 26014KT P6SM SCT015 BKN020 BKN050
     FM280300 24011KT P6SM BKN025 OVC035
     FM280600 28015KT P6SM OVC025
     FM281100 28015KT P6SM SCT025 BKN035
     FM281500 28013KT P6SM VCSH SCT025 OVC040
     FM281700 29017G23KT P6SM VCSH SCT025 BKN040
      TEMPO 2817/2821 6SM -SHRA BR SCT025 BKN035
     FM282100 26018G25KT P6SM VCSH SCT015 BKN025
      TEMPO 2821/0101 5SM -SHRA BKN015
     FM010100 24016G22KT P6SM VCSH SCT025 BKN035
      TEMPO 0101/0105 6SM -SHRA BR SCT025 BKN035=



000
FTUS46 KLOX 280100 AAA
TAFSBP
TAF AMD
KSBP 280104Z 2801/2824 30015G23KT P6SM BKN020
     FM280300 31012KT P6SM SCT025 BKN040
     FM280500 31007KT P6SM SCT025 BKN040
     FM280800 28005KT P6SM BKN025 OVC035
     FM281200 VRB03KT P6SM VCSH SCT025 OVC035
     FM281500 VRB03KT 6SM -SHRA BR SCT015 OVC025
     FM281900 29009KT 6SM -SHRA BR SCT025 BKN035=



000
FTUS46 KLOX 272300 RRA
TAFSBA
TAF
KSBA 272340Z 2800/2824 28019G28KT P6SM SCT040 SCT250
     FM280200 30012KT P6SM SCT040 SCT250 WS010/34035KT
     FM280900 31006KT P6SM BKN035
     FM281400 35007KT P6SM VCSH SCT025 OVC035
     FM281800 27010KT P6SM VCSH SCT025 OVC040
      TEMPO 2818/2821 6SM -SHRA BR SCT025 OVC035
     FM282100 28014KT P6SM VCSH SCT025 BKN040
      TEMPO 2821/2824 6SM -SHRA SCT025 BKN035=



000
FTUS46 KLOX 272300 RRA
TAFLGB
TAF
KLGB 272340Z 2800/2824 20007KT P6SM FEW045 BKN060
     FM280100 26009KT P6SM SCT025 BKN050
     FM280500 28011KT P6SM BKN025 OVC035
     FM281100 25007KT P6SM SCT025 BKN035
     FM281700 22008KT P6SM VCSH SCT025 OVC040
      TEMPO 2817/2821 6SM -SHRA BR SCT025 BKN035
     FM282100 23017G23KT P6SM SCT015 OVC025
      TEMPO 2821/2824 6SM -SHRA BR BKN015=



000
FTUS46 KLOX 272300 RRA
TAFVNY
TAF
KVNY 272340Z 2800/2824 18005KT P6SM BKN030 OVC035
     FM280300 17004KT P6SM OVC025
     FM280800 VRB03KT P6SM SCT025 BKN035
     FM281700 20004KT P6SM VCSH SCT025 BKN040
      TEMPO 2817/2821 6SM -SHRA BR SCT025 BKN035
     FM282100 17007KT P6SM VCSH BKN025 OVC035
      TEMPO 2821/2824 6SM -SHRA BR SCT015 OVC025=



000
FTUS46 KLOX 272300 RRA
TAFBUR
TAF
KBUR 272340Z 2800/2824 20009KT P6SM BKN025 BKN040 OVC050
     FM280300 15008KT P6SM OVC025
     FM280800 30006KT P6SM SCT025 OVC035
     FM281700 25010KT P6SM VCSH SCT025 BKN035
      TEMPO 2817/2821 6SM -SHRA BR SCT025 BKN035
     FM282100 17011KT P6SM VCSH BKN025 OVC035
      TEMPO 2821/2824 6SM -SHRA BR SCT015 OVC025=



000
FTUS46 KLOX 272300 RRA
TAFWJF
TAF
KWJF 272340Z 2800/2824 23020G30KT P6SM SCT040 BKN200
     FM280300 25017G25KT P6SM BKN035
     FM281700 27018G26KT P6SM VCSH SCT025 BKN035
      TEMPO 2817/2821 6SM -SHRA BR SCT025 BKN035
     FM282100 25020G30KT P6SM BKN025 OVC035
      TEMPO 2821/2824 6SM -SHRA BR SCT015 OVC025=



000
FTUS46 KLOX 272300 RRA
TAFPMD
TAF
KPMD 272340Z 2800/2824 23022G28KT P6SM SCT050 BKN200
     FM280500 26015G23KT P6SM BKN035
     FM281700 27018G26KT P6SM VCSH SCT025 BKN035
      TEMPO 2817/2821 6SM -SHRA BR SCT025 BKN035
     FM282100 25020G30KT P6SM BKN025 OVC035
      TEMPO 2821/2824 6SM -SHRA BR SCT015 OVC025=



000
FTUS46 KLOX 272300 RRA
TAFSBP
TAF
KSBP 272340Z 2800/2824 31016G22KT P6SM SCT025
     FM280300 31012KT P6SM SCT025 BKN040
     FM280500 31007KT P6SM SCT025 BKN040
     FM280800 28005KT P6SM BKN025 OVC035
     FM281200 VRB03KT P6SM VCSH SCT025 OVC035
     FM281500 VRB03KT 6SM -SHRA BR SCT015 OVC025
     FM281900 29009KT 6SM -SHRA BR SCT025 BKN035=



000
FTUS46 KLOX 272300 RRA
TAFSMX
TAF
KSMX 272340Z 2800/2824 30020G30KT P6SM SCT020
     FM280300 30010KT P6SM BKN025
     FM280800 VRB03KT P6SM VCSH SCT015 OVC025
     FM281100 VRB03KT 6SM BR VCSH SCT025 OVC035
     FM281500 VRB03KT 6SM -SHRA BR SCT025 OVC035
     FM281900 27011KT 6SM -SHRA BR SCT025 OVC040=



000
FTUS46 KLOX 272300 RRA
TAFPRB
TAF
KPRB 272340Z 2800/2824 33014KT P6SM SCT060
     FM280300 28011KT P6SM SCT035 OVC050
     FM280800 30006KT P6SM SCT030 OVC040
     FM281100 VRB03KT P6SM VCSH SCT025 OVC040
     FM281500 10005KT P6SM SCT025 OVC040
      TEMPO 2815/2818 P6SM -SHRA OVC035
     FM281800 30006KT 6SM -SHRA BR SCT025 BKN040
     FM282100 24012KT 6SM -SHRA BR SCT025 OVC035=



000
FTUS46 KLOX 272300 RRA
TAFLAX
TAF
KLAX 272340Z 2800/0106 24011KT P6SM SCT025 SCT035 BKN050
     FM280300 24011KT P6SM BKN025 OVC035
     FM280600 28015KT P6SM OVC025
     FM281100 28015KT P6SM SCT025 BKN035
     FM281500 28013KT P6SM VCSH SCT025 OVC040
     FM281700 29017G23KT P6SM VCSH SCT025 BKN040
      TEMPO 2817/2821 6SM -SHRA BR SCT025 BKN035
     FM282100 26018G25KT P6SM VCSH SCT015 BKN025
      TEMPO 2821/0101 5SM -SHRA BKN015
     FM010100 24016G22KT P6SM VCSH SCT025 BKN035
      TEMPO 0101/0105 6SM -SHRA BR SCT025 BKN035=



000
FTUS46 KLOX 272300 RRA
TAFLGB
TAF
KLGB 272340Z 2800/2824 20007KT P6SM FEW045 BKN060
     FM280100 26009KT P6SM SCT025 BKN050
     FM280500 28011KT P6SM BKN025 OVC035
     FM281100 25007KT P6SM SCT025 BKN035
     FM281700 22008KT P6SM VCSH SCT025 OVC040
      TEMPO 2817/2821 6SM -SHRA BR SCT025 BKN035
     FM282100 23017G23KT P6SM SCT015 OVC025
      TEMPO 2821/2824 6SM -SHRA BR BKN015=



000
FTUS46 KLOX 272300 RRA
TAFWJF
TAF
KWJF 272340Z 2800/2824 23020G30KT P6SM SCT040 BKN200
     FM280300 25017G25KT P6SM BKN035
     FM281700 27018G26KT P6SM VCSH SCT025 BKN035
      TEMPO 2817/2821 6SM -SHRA BR SCT025 BKN035
     FM282100 25020G30KT P6SM BKN025 OVC035
      TEMPO 2821/2824 6SM -SHRA BR SCT015 OVC025=



000
FTUS46 KLOX 272300 RRA
TAFPRB
TAF
KPRB 272340Z 2800/2824 33014KT P6SM SCT060
     FM280300 28011KT P6SM SCT035 OVC050
     FM280800 30006KT P6SM SCT030 OVC040
     FM281100 VRB03KT P6SM VCSH SCT025 OVC040
     FM281500 10005KT P6SM SCT025 OVC040
      TEMPO 2815/2818 P6SM -SHRA OVC035
     FM281800 30006KT 6SM -SHRA BR SCT025 BKN040
     FM282100 24012KT 6SM -SHRA BR SCT025 OVC035=



000
FTUS46 KLOX 272300 RRA
TAFSMX
TAF
KSMX 272340Z 2800/2824 30020G30KT P6SM SCT020
     FM280300 30010KT P6SM BKN025
     FM280800 VRB03KT P6SM VCSH SCT015 OVC025
     FM281100 VRB03KT 6SM BR VCSH SCT025 OVC035
     FM281500 VRB03KT 6SM -SHRA BR SCT025 OVC035
     FM281900 27011KT 6SM -SHRA BR SCT025 OVC040=



000
FTUS46 KLOX 272300 RRA
TAFBUR
TAF
KBUR 272340Z 2800/2824 20009KT P6SM BKN025 BKN040 OVC050
     FM280300 15008KT P6SM OVC025
     FM280800 30006KT P6SM SCT025 OVC035
     FM281700 25010KT P6SM VCSH SCT025 BKN035
      TEMPO 2817/2821 6SM -SHRA BR SCT025 BKN035
     FM282100 17011KT P6SM VCSH BKN025 OVC035
      TEMPO 2821/2824 6SM -SHRA BR SCT015 OVC025=



000
FTUS46 KLOX 272300 RRA
TAFSBP
TAF
KSBP 272340Z 2800/2824 31016G22KT P6SM SCT025
     FM280300 31012KT P6SM SCT025 BKN040
     FM280500 31007KT P6SM SCT025 BKN040
     FM280800 28005KT P6SM BKN025 OVC035
     FM281200 VRB03KT P6SM VCSH SCT025 OVC035
     FM281500 VRB03KT 6SM -SHRA BR SCT015 OVC025
     FM281900 29009KT 6SM -SHRA BR SCT025 BKN035=



000
FTUS46 KLOX 272300 RRA
TAFLAX
TAF
KLAX 272340Z 2800/0106 24011KT P6SM SCT025 SCT035 BKN050
     FM280300 24011KT P6SM BKN025 OVC035
     FM280600 28015KT P6SM OVC025
     FM281100 28015KT P6SM SCT025 BKN035
     FM281500 28013KT P6SM VCSH SCT025 OVC040
     FM281700 29017G23KT P6SM VCSH SCT025 BKN040
      TEMPO 2817/2821 6SM -SHRA BR SCT025 BKN035
     FM282100 26018G25KT P6SM VCSH SCT015 BKN025
      TEMPO 2821/0101 5SM -SHRA BKN015
     FM010100 24016G22KT P6SM VCSH SCT025 BKN035
      TEMPO 0101/0105 6SM -SHRA BR SCT025 BKN035=



000
FTUS46 KLOX 272300 RRA
TAFVNY
TAF
KVNY 272340Z 2800/2824 18005KT P6SM BKN030 OVC035
     FM280300 17004KT P6SM OVC025
     FM280800 VRB03KT P6SM SCT025 BKN035
     FM281700 20004KT P6SM VCSH SCT025 BKN040
      TEMPO 2817/2821 6SM -SHRA BR SCT025 BKN035
     FM282100 17007KT P6SM VCSH BKN025 OVC035
      TEMPO 2821/2824 6SM -SHRA BR SCT015 OVC025=



000
FTUS46 KLOX 272300 RRA
TAFPMD
TAF
KPMD 272340Z 2800/2824 23022G28KT P6SM SCT050 BKN200
     FM280500 26015G23KT P6SM BKN035
     FM281700 27018G26KT P6SM VCSH SCT025 BKN035
      TEMPO 2817/2821 6SM -SHRA BR SCT025 BKN035
     FM282100 25020G30KT P6SM BKN025 OVC035
      TEMPO 2821/2824 6SM -SHRA BR SCT015 OVC025=



000
FTUS46 KLOX 272300 RRA
TAFSBA
TAF
KSBA 272340Z 2800/2824 28019G28KT P6SM SCT040 SCT250
     FM280200 30012KT P6SM SCT040 SCT250 WS010/34035KT
     FM280900 31006KT P6SM BKN035
     FM281400 35007KT P6SM VCSH SCT025 OVC035
     FM281800 27010KT P6SM VCSH SCT025 OVC040
      TEMPO 2818/2821 6SM -SHRA BR SCT025 OVC035
     FM282100 28014KT P6SM VCSH SCT025 BKN040
      TEMPO 2821/2824 6SM -SHRA SCT025 BKN035=



000
FTUS46 KLOX 272000 AAB
TAFLAX
TAF AMD
KLAX 272038Z 2721/2824 25006KT P6SM SCT030 BKN040
     FM272200 28013KT P6SM SCT035 BKN070
     FM280200 28012KT P6SM SCT015 BKN060
     FM280600 28015G22KT P6SM BKN025 OVC050
     FM281500 28012KT P6SM VCSH OVC025
     FM281800 26018G28KT 6SM -RA BR OVC015=



000
FTUS46 KLOX 272000 AAB
TAFLAX
TAF AMD
KLAX 272038Z 2721/2824 25006KT P6SM SCT030 BKN040
     FM272200 28013KT P6SM SCT035 BKN070
     FM280200 28012KT P6SM SCT015 BKN060
     FM280600 28015G22KT P6SM BKN025 OVC050
     FM281500 28012KT P6SM VCSH OVC025
     FM281800 26018G28KT 6SM -RA BR OVC015=



000
FTUS46 KLOX 272000 AAA
TAFPRB
TAF AMD
KPRB 272035Z 2721/2818 30012KT P6SM FEW025 BKN100
     FM272200 27015G22KT P6SM BKN050
     FM280800 30010KT P6SM SCT020 OVC040 PROB30 2808/2812 5SM -RA BR
      OVC020
     FM281400 20006KT 4SM -SHRA BKN015 OVC050=



000
FTUS46 KLOX 272000 AAA
TAFPRB
TAF AMD
KPRB 272035Z 2721/2818 30012KT P6SM FEW025 BKN100
     FM272200 27015G22KT P6SM BKN050
     FM280800 30010KT P6SM SCT020 OVC040 PROB30 2808/2812 5SM -RA BR
      OVC020
     FM281400 20006KT 4SM -SHRA BKN015 OVC050=



000
FTUS46 KLOX 271800 AAA
TAFLAX
TAF AMD
KLAX 271813Z 2718/2824 VRB05KT P6SM BKN035
     FM272100 26010KT P6SM BKN035 BKN080
     FM272200 28013KT P6SM SCT035 BKN070
     FM280200 28012KT P6SM SCT015 BKN060
     FM280600 28015G22KT P6SM BKN025 OVC050
     FM281500 28012KT P6SM VCSH OVC025
     FM281800 26018G28KT 6SM -RA BR OVC015=



000
FTUS46 KLOX 271800 AAA
TAFLAX
TAF AMD
KLAX 271813Z 2718/2824 VRB05KT P6SM BKN035
     FM272100 26010KT P6SM BKN035 BKN080
     FM272200 28013KT P6SM SCT035 BKN070
     FM280200 28012KT P6SM SCT015 BKN060
     FM280600 28015G22KT P6SM BKN025 OVC050
     FM281500 28012KT P6SM VCSH OVC025
     FM281800 26018G28KT 6SM -RA BR OVC015=



000
FTUS46 KLOX 271700
TAFVNY
TAF
KVNY 271739Z 2718/2818 VRB05KT P6SM OVC025
     FM272100 17008KT P6SM SCT030
     FM280300 VRB04KT P6SM BKN025 BKN080
     FM281400 27004KT 6SM BR VCSH BKN025 OVC050=



000
FTUS46 KLOX 271700
TAFLAX
TAF
KLAX 271739Z 2718/2824 14006KT P6SM BKN030
     FM272100 26010KT P6SM BKN035 BKN080
     FM272200 28013KT P6SM SCT035 BKN070
     FM280200 28012KT P6SM SCT015 BKN060
     FM280600 28015G22KT P6SM BKN025 OVC050
     FM281500 28012KT P6SM VCSH OVC025
     FM281800 26018G28KT 6SM -RA BR OVC015=



000
FTUS46 KLOX 271700
TAFPMD
TAF
KPMD 271739Z 2718/2818 VRB05KT P6SM SKC
     FM272000 27015KT P6SM SKC
     FM272200 26020G27KT P6SM SCT150
     FM280500 26015G23KT P6SM BKN035=



000
FTUS46 KLOX 271700
TAFBUR
TAF
KBUR 271739Z 2718/2818 VRB05KT P6SM OVC030
     FM271900 19008KT P6SM SCT040
     FM272300 25010KT P6SM SCT025 BKN060
     FM280600 27010G17KT P6SM BKN025 BKN080
     FM281400 26008KT 6SM BR VCSH BKN025 OVC050=



000
FTUS46 KLOX 271700
TAFPMD
TAF
KPMD 271739Z 2718/2818 VRB05KT P6SM SKC
     FM272000 27015KT P6SM SKC
     FM272200 26020G27KT P6SM SCT150
     FM280500 26015G23KT P6SM BKN035=



000
FTUS46 KLOX 271700
TAFVNY
TAF
KVNY 271739Z 2718/2818 VRB05KT P6SM OVC025
     FM272100 17008KT P6SM SCT030
     FM280300 VRB04KT P6SM BKN025 BKN080
     FM281400 27004KT 6SM BR VCSH BKN025 OVC050=



000
FTUS46 KLOX 271700
TAFLAX
TAF
KLAX 271739Z 2718/2824 14006KT P6SM BKN030
     FM272100 26010KT P6SM BKN035 BKN080
     FM272200 28013KT P6SM SCT035 BKN070
     FM280200 28012KT P6SM SCT015 BKN060
     FM280600 28015G22KT P6SM BKN025 OVC050
     FM281500 28012KT P6SM VCSH OVC025
     FM281800 26018G28KT 6SM -RA BR OVC015=



000
FTUS46 KLOX 271700
TAFSBA
TAF
KSBA 271739Z 2718/2818 23007KT P6SM SKC
     FM272000 26012KT P6SM BKN150
     FM272200 27015G22KT P6SM BKN120
     FM280100 30014KT P6SM BKN150 WS010/34035KT
     FM280900 31006KT P6SM BKN035
     FM281400 35007KT P6SM OVC035 PROB30 2814/2818 5SM -RA BR
      OVC020=



000
FTUS46 KLOX 271700
TAFPRB
TAF
KPRB 271739Z 2718/2818 31006KT P6SM BKN009 BKN080
     FM272000 29013KT P6SM BKN020 BKN060
     FM272200 27015G22KT P6SM BKN050
     FM280800 30010KT P6SM SCT020 OVC040 PROB30 2808/2812 5SM -RA BR
      OVC020
     FM281400 20006KT 4SM -SHRA BKN015 OVC050=



000
FTUS46 KLOX 271700
TAFSBA
TAF
KSBA 271739Z 2718/2818 23007KT P6SM SKC
     FM272000 26012KT P6SM BKN150
     FM272200 27015G22KT P6SM BKN120
     FM280100 30014KT P6SM BKN150 WS010/34035KT
     FM280900 31006KT P6SM BKN035
     FM281400 35007KT P6SM OVC035 PROB30 2814/2818 5SM -RA BR
      OVC020=



000
FTUS46 KLOX 271700
TAFPRB
TAF
KPRB 271739Z 2718/2818 31006KT P6SM BKN009 BKN080
     FM272000 29013KT P6SM BKN020 BKN060
     FM272200 27015G22KT P6SM BKN050
     FM280800 30010KT P6SM SCT020 OVC040 PROB30 2808/2812 5SM -RA BR
      OVC020
     FM281400 20006KT 4SM -SHRA BKN015 OVC050=



000
FTUS46 KLOX 271700
TAFSBP
TAF
KSBP 271739Z 2718/2818 35006KT P6SM FEW020
     FM271900 32014KT P6SM SCT050 BKN250
     FM272100 31016G25KT P6SM BKN050
     FM280500 31010KT P6SM BKN035
     FM280600 VRB03KT P6SM SCT015 OVC025 PROB30 2808/2812 5SM -RA BR
      OVC015
     FM281400 VRB05KT 4SM -SHRA BKN015 OVC030=



000
FTUS46 KLOX 271700
TAFWJF
TAF
KWJF 271739Z 2718/2818 26015G25KT P6SM SCT250
     FM271900 26025G35KT P6SM SKC
     FM280600 25017G25KT P6SM BKN035=



000
FTUS46 KLOX 271700
TAFWJF
TAF
KWJF 271739Z 2718/2818 26015G25KT P6SM SCT250
     FM271900 26025G35KT P6SM SKC
     FM280600 25017G25KT P6SM BKN035=



000
FTUS46 KLOX 271700
TAFSBP
TAF
KSBP 271739Z 2718/2818 35006KT P6SM FEW020
     FM271900 32014KT P6SM SCT050 BKN250
     FM272100 31016G25KT P6SM BKN050
     FM280500 31010KT P6SM BKN035
     FM280600 VRB03KT P6SM SCT015 OVC025 PROB30 2808/2812 5SM -RA BR
      OVC015
     FM281400 VRB05KT 4SM -SHRA BKN015 OVC030=



000
FTUS46 KLOX 271700
TAFLGB
TAF
KLGB 271739Z 2718/2818 VRB05KT P6SM OVC030
     FM272000 20008KT P6SM BKN040
     FM272200 24010KT P6SM SCT025 BKN060
     FM280100 26009KT P6SM BKN025 BKN080
     FM280900 28012G18KT P6SM OVC035
     FM281500 28009KT 6SM -RA BR OVC025=



000
FTUS46 KLOX 271700
TAFSMX
TAF
KSMX 271739Z 2718/2818 31006KT P6SM SCT012
     FM272000 30018G28KT P6SM SCT025 BKN060
     FM280400 30010KT P6SM BKN025
     FM280800 VRB03KT P6SM SCT015 OVC025 PROB30 2809/2812 5SM -RA BR
      OVC015
     FM281600 31005KT 5SM -SHRA BR BKN025 OVC050=



000
FTUS46 KLOX 271700
TAFSMX
TAF
KSMX 271739Z 2718/2818 31006KT P6SM SCT012
     FM272000 30018G28KT P6SM SCT025 BKN060
     FM280400 30010KT P6SM BKN025
     FM280800 VRB03KT P6SM SCT015 OVC025 PROB30 2809/2812 5SM -RA BR
      OVC015
     FM281600 31005KT 5SM -SHRA BR BKN025 OVC050=



000
FTUS46 KLOX 271700
TAFLGB
TAF
KLGB 271739Z 2718/2818 VRB05KT P6SM OVC030
     FM272000 20008KT P6SM BKN040
     FM272200 24010KT P6SM SCT025 BKN060
     FM280100 26009KT P6SM BKN025 BKN080
     FM280900 28012G18KT P6SM OVC035
     FM281500 28009KT 6SM -RA BR OVC025=



000
FTUS46 KLOX 271700
TAFBUR
TAF
KBUR 271739Z 2718/2818 VRB05KT P6SM OVC030
     FM271900 19008KT P6SM SCT040
     FM272300 25010KT P6SM SCT025 BKN060
     FM280600 27010G17KT P6SM BKN025 BKN080
     FM281400 26008KT 6SM BR VCSH BKN025 OVC050=



000
FTUS46 KLOX 271700 AAC
TAFPRB
TAF AMD
KPRB 271702Z 2717/2812 31006KT P6SM OVC007
     FM271800 VRB03KT P6SM BKN009 BKN080
     FM272100 31012KT P6SM BKN060
     FM280800 VRB03KT P6SM SCT020 OVC040 PROB30 2808/2812 5SM -RA BR
      OVC020=



000
FTUS46 KLOX 271700 AAC
TAFPRB
TAF AMD
KPRB 271702Z 2717/2812 31006KT P6SM OVC007
     FM271800 VRB03KT P6SM BKN009 BKN080
     FM272100 31012KT P6SM BKN060
     FM280800 VRB03KT P6SM SCT020 OVC040 PROB30 2808/2812 5SM -RA BR
      OVC020=



000
FTUS46 KLOX 271700 AAB
TAFSMX
TAF AMD
KSMX 271701Z 2717/2812 32005KT P6SM SCT010
     FM271800 31010KT P6SM SCT012
     FM272100 30020G28KT P6SM SCT025 BKN060
     FM280300 30010KT P6SM BKN025
     FM280800 VRB03KT P6SM SCT015 OVC025 PROB30 2809/2812 5SM -RA BR
      OVC015=



000
FTUS46 KLOX 271700 AAB
TAFSMX
TAF AMD
KSMX 271701Z 2717/2812 32005KT P6SM SCT010
     FM271800 31010KT P6SM SCT012
     FM272100 30020G28KT P6SM SCT025 BKN060
     FM280300 30010KT P6SM BKN025
     FM280800 VRB03KT P6SM SCT015 OVC025 PROB30 2809/2812 5SM -RA BR
      OVC015=



000
FTUS46 KLOX 271500 AAC
TAFSBP
TAF AMD
KSBP 271529Z 2715/2812 VRB03KT 6SM BR SCT012
     FM271800 31010KT P6SM SCT015
     FM272100 31018G25KT P6SM SCT025 BKN050
     FM280300 31010KT P6SM BKN025
     FM280800 VRB03KT P6SM SCT015 OVC025 PROB30 2808/2812 5SM -RA BR
      OVC015=



000
FTUS46 KLOX 271500 AAC
TAFSBP
TAF AMD
KSBP 271529Z 2715/2812 VRB03KT 6SM BR SCT012
     FM271800 31010KT P6SM SCT015
     FM272100 31018G25KT P6SM SCT025 BKN050
     FM280300 31010KT P6SM BKN025
     FM280800 VRB03KT P6SM SCT015 OVC025 PROB30 2808/2812 5SM -RA BR
      OVC015=



000
FTUS46 KLOX 271400 AAA
TAFSMX
TAF AMD
KSMX 271444Z 2715/2812 VRB03KT 2SM BR OVC007
     FM271700 32005KT 5SM BR BKN009
     FM271800 31010KT P6SM SCT012
     FM272100 30020G28KT P6SM SCT025 BKN060
     FM280300 30010KT P6SM BKN025
     FM280800 VRB03KT P6SM SCT015 OVC025 PROB30 2809/2812 5SM -RA BR
      OVC015=



000
FTUS46 KLOX 271400 AAA
TAFSMX
TAF AMD
KSMX 271444Z 2715/2812 VRB03KT 2SM BR OVC007
     FM271700 32005KT 5SM BR BKN009
     FM271800 31010KT P6SM SCT012
     FM272100 30020G28KT P6SM SCT025 BKN060
     FM280300 30010KT P6SM BKN025
     FM280800 VRB03KT P6SM SCT015 OVC025 PROB30 2809/2812 5SM -RA BR
      OVC015=



000
FTUS46 KLOX 271400 AAB
TAFLAX
TAF AMD
KLAX 271443Z 2715/2818 08005KT P6SM FEW012 BKN020
     FM271800 12007KT P6SM BKN030
     FM272100 26012KT P6SM SCT025 BKN080
     FM280300 28012KT P6SM BKN025 BKN080
     FM281300 28010KT P6SM VCSH OVC035=



000
FTUS46 KLOX 271400 AAB
TAFLAX
TAF AMD
KLAX 271443Z 2715/2818 08005KT P6SM FEW012 BKN020
     FM271800 12007KT P6SM BKN030
     FM272100 26012KT P6SM SCT025 BKN080
     FM280300 28012KT P6SM BKN025 BKN080
     FM281300 28010KT P6SM VCSH OVC035=



000
FTUS46 KLOX 271400 AAA
TAFBUR
TAF AMD
KBUR 271406Z 2714/2812 VRB03KT P6SM OVC020
     FM271900 17008KT P6SM SCT020
     FM280300 VRB03KT P6SM BKN025=



000
FTUS46 KLOX 271400 AAA
TAFBUR
TAF AMD
KBUR 271406Z 2714/2812 VRB03KT P6SM OVC020
     FM271900 17008KT P6SM SCT020
     FM280300 VRB03KT P6SM BKN025=



000
FTUS46 KLOX 271400 AAB
TAFSBP
TAF AMD
KSBP 271405Z 2714/2812 VRB03KT 2SM BR BKN011
     FM271600 VRB03KT 3SM BR BKN011
     FM271800 31010KT P6SM SCT010
     FM272100 31018G25KT P6SM SCT025 BKN050
     FM280300 31010KT P6SM BKN025
     FM280800 VRB03KT P6SM SCT015 OVC025 PROB30 2808/2812 5SM -RA BR
      OVC015=



000
FTUS46 KLOX 271400 AAA
TAFLAX
TAF AMD
KLAX 271405Z 2714/2818 VRB03KT P6SM OVC020
     FM272100 26012KT P6SM SCT025 BKN080
     FM280300 28012KT P6SM BKN025 BKN080
     FM281300 28010KT P6SM VCSH OVC035=



000
FTUS46 KLOX 271400 AAB
TAFPRB
TAF AMD
KPRB 271405Z 2714/2812 VRB03KT P6SM OVC004
     FM271800 VRB03KT P6SM FEW010 BKN080
     FM272100 31012KT P6SM BKN060
     FM280800 VRB03KT P6SM SCT020 OVC040 PROB30 2808/2812 5SM -RA BR
      OVC020=



000
FTUS46 KLOX 271400 AAA
TAFLAX
TAF AMD
KLAX 271405Z 2714/2818 VRB03KT P6SM OVC020
     FM272100 26012KT P6SM SCT025 BKN080
     FM280300 28012KT P6SM BKN025 BKN080
     FM281300 28010KT P6SM VCSH OVC035=



000
FTUS46 KLOX 271400 AAB
TAFSBP
TAF AMD
KSBP 271405Z 2714/2812 VRB03KT 2SM BR BKN011
     FM271600 VRB03KT 3SM BR BKN011
     FM271800 31010KT P6SM SCT010
     FM272100 31018G25KT P6SM SCT025 BKN050
     FM280300 31010KT P6SM BKN025
     FM280800 VRB03KT P6SM SCT015 OVC025 PROB30 2808/2812 5SM -RA BR
      OVC015=



000
FTUS46 KLOX 271400 AAB
TAFPRB
TAF AMD
KPRB 271405Z 2714/2812 VRB03KT P6SM OVC004
     FM271800 VRB03KT P6SM FEW010 BKN080
     FM272100 31012KT P6SM BKN060
     FM280800 VRB03KT P6SM SCT020 OVC040 PROB30 2808/2812 5SM -RA BR
      OVC020=



000
FTUS46 KLOX 271300 AAA
TAFVNY
TAF AMD
KVNY 271321Z 2713/2812 VRB03KT P6SM OVC015
     FM271900 15008KT P6SM SCT020
     FM280300 VRB03KT P6SM BKN025=



000
FTUS46 KLOX 271300 AAA
TAFSBP
TAF AMD
KSBP 271321Z 2713/2812 VRB03KT 1SM BR BKN004
     FM271600 VRB03KT 3SM BR BKN007
     FM271800 31010KT P6SM SCT010
     FM272100 31018G25KT P6SM SCT025 BKN050
     FM280300 31010KT P6SM BKN025
     FM280800 VRB03KT P6SM SCT015 OVC025 PROB30 2808/2812 5SM -RA BR
      OVC015=



000
FTUS46 KLOX 271300 AAA
TAFSBP
TAF AMD
KSBP 271321Z 2713/2812 VRB03KT 1SM BR BKN004
     FM271600 VRB03KT 3SM BR BKN007
     FM271800 31010KT P6SM SCT010
     FM272100 31018G25KT P6SM SCT025 BKN050
     FM280300 31010KT P6SM BKN025
     FM280800 VRB03KT P6SM SCT015 OVC025 PROB30 2808/2812 5SM -RA BR
      OVC015=



000
FTUS46 KLOX 271300 AAA
TAFVNY
TAF AMD
KVNY 271321Z 2713/2812 VRB03KT P6SM OVC015
     FM271900 15008KT P6SM SCT020
     FM280300 VRB03KT P6SM BKN025=



000
FTUS46 KLOX 271300 AAA
TAFPRB
TAF AMD
KPRB 271320Z 2713/2812 VRB03KT P6SM OVC005
     FM271800 VRB03KT P6SM FEW010 BKN080
     FM272100 31012KT P6SM BKN060
     FM280800 VRB03KT P6SM SCT020 OVC040 PROB30 2808/2812 5SM -RA BR
      OVC020=



000
FTUS46 KLOX 271300 AAA
TAFPRB
TAF AMD
KPRB 271320Z 2713/2812 VRB03KT P6SM OVC005
     FM271800 VRB03KT P6SM FEW010 BKN080
     FM272100 31012KT P6SM BKN060
     FM280800 VRB03KT P6SM SCT020 OVC040 PROB30 2808/2812 5SM -RA BR
      OVC020=



000
FTUS46 KLOX 271100
TAFLGB
TAF
KLGB 271132Z 2712/2812 VRB03KT P6SM OVC018
     FM271400 VRB03KT P6SM OVC022
     FM272000 19008KT P6SM SCT025
     FM280100 26010KT P6SM BKN025 BKN080
     FM281100 28007KT P6SM OVC035=



000
FTUS46 KLOX 271100
TAFSBA
TAF
KSBA 271132Z 2712/2812 VRB03KT P6SM SKC
     FM271700 23007KT P6SM SKC
     FM272000 26015G20KT P6SM BKN150
     FM280000 30010KT P6SM BKN150 WS010/34035KT
     FM280900 VRB03KT P6SM OVC030=



000
FTUS46 KLOX 271100
TAFSBP
TAF
KSBP 271132Z 2712/2812 VRB03KT 5SM BR BKN008
     FM271800 31010KT P6SM SCT010
     FM272100 31018G25KT P6SM SCT025 BKN050
     FM280300 31010KT P6SM BKN025
     FM280800 VRB03KT P6SM SCT015 OVC025 PROB30 2808/2812 5SM -RA BR
      OVC015=



000
FTUS46 KLOX 271100
TAFLAX
TAF
KLAX 271132Z 2712/2818 VRB03KT P6SM OVC015
     FM271600 VRB03KT P6SM OVC022
     FM272100 26012KT P6SM SCT025 BKN080
     FM280300 28012KT P6SM BKN025 BKN080
     FM281300 28010KT P6SM VCSH OVC035=



000
FTUS46 KLOX 271100
TAFBUR
TAF
KBUR 271132Z 2712/2812 VRB03KT P6SM BKN010
     FM271900 17008KT P6SM SCT020
     FM280300 VRB03KT P6SM BKN025=



000
FTUS46 KLOX 271100
TAFVNY
TAF
KVNY 271132Z 2712/2812 VRB03KT 4SM BR BKN007
     FM271900 15008KT P6SM SCT020
     FM280300 VRB03KT P6SM BKN025=



000
FTUS46 KLOX 271100
TAFPRB
TAF
KPRB 271132Z 2712/2812 VRB03KT 1/4SM FG VV001
     FM271800 VRB03KT P6SM FEW004 BKN080
     FM272100 31012KT P6SM BKN060
     FM280800 VRB03KT P6SM SCT020 OVC040 PROB30 2808/2812 5SM -RA BR
      OVC020=



000
FTUS46 KLOX 271100
TAFSMX
TAF
KSMX 271132Z 2712/2812 VRB03KT 1/4SM FG VV003
     FM271700 VRB03KT 2SM BR BKN003
     FM271800 31010KT P6SM SCT005
     FM272100 30020G28KT P6SM SCT025 BKN060
     FM280300 30010KT P6SM BKN025
     FM280800 VRB03KT P6SM SCT015 OVC025 PROB30 2809/2812 5SM -RA BR
      OVC015=



000
FTUS46 KLOX 271100
TAFPMD
TAF
KPMD 271132Z 2712/2812 28008KT P6SM SKC
     FM271800 27015KT P6SM SKC
     FM272100 26020G30KT P6SM SCT150
     FM280500 26015G23KT P6SM BKN035=



000
FTUS46 KLOX 271100
TAFWJF
TAF
KWJF 271132Z 2712/2812 26015G20KT P6SM SCT250
     FM271900 26025G35KT P6SM SKC
     FM280600 25017G25KT P6SM BKN035=



000
FTUS46 KLOX 271000 AAA
TAFLGB
TAF AMD
KLGB 271036Z 2711/2806 VRB03KT P6SM OVC015
     FM272000 20008KT P6SM BKN080
     FM280200 28008KT P6SM BKN025=



000
FTUS46 KLOX 271000 AAA
TAFLGB
TAF AMD
KLGB 271036Z 2711/2806 VRB03KT P6SM OVC015
     FM272000 20008KT P6SM BKN080
     FM280200 28008KT P6SM BKN025=



000
FTUS46 KLOX 270800 AAA
TAFLAX
TAF AMD
KLAX 270856Z 2709/2812 VRB03KT P6SM SCT250
     FM271000 VRB03KT P6SM OVC012
     FM271800 VRB03KT 6SM BR BKN015 BKN100
     FM272100 26015KT P6SM SCT015 BKN080
     FM280500 28012KT P6SM BKN015 BKN080
     FM280900 30007KT P6SM OVC025=



000
FTUS46 KLOX 270800 AAB
TAFSMX
TAF AMD
KSMX 270827Z 2708/2806 VRB03KT 2SM BR BKN005
     FM271100 VRB03KT 2SM BR BKN003
     FM271700 31010KT P6SM SCT005 BKN060
     FM272100 30020G28KT P6SM SCT025 BKN060
     FM280300 30010KT P6SM BKN025=



000
FTUS46 KLOX 270600 AAA
TAFSMX
TAF AMD
KSMX 270619Z 2706/2806 VRB03KT 3SM BR BKN008
     FM271100 VRB03KT 2SM BR BKN003
     FM271700 31010KT P6SM SCT005 BKN060
     FM272100 30020G28KT P6SM SCT025 BKN060
     FM280300 30010KT P6SM BKN025=



000
FTUS46 KLOX 270500
TAFVNY
TAF
KVNY 270539Z 2706/2806 VRB03KT P6SM SCT250
     FM271200 VRB03KT 5SM BR SCT250
     FM271800 VRB03KT P6SM BKN100
     FM272100 15008KT P6SM BKN080
     FM280300 VRB03KT P6SM BKN025=



000
FTUS46 KLOX 270500
TAFPRB
TAF
KPRB 270539Z 2706/2806 VRB03KT P6SM SCT250
     FM271200 VRB03KT 1/4SM FG VV001
     FM271800 VRB03KT P6SM FEW004 BKN080
     FM272100 31012KT P6SM BKN060
     FM280400 VRB03KT P6SM BKN060=



000
FTUS46 KLOX 270500
TAFPMD
TAF
KPMD 270539Z 2706/2806 28008KT P6SM SCT250
     FM271800 27015KT P6SM BKN100
     FM272100 26018G28KT P6SM BKN080
     FM280400 26015KT P6SM BKN080=



000
FTUS46 KLOX 270500
TAFBUR
TAF
KBUR 270539Z 2706/2806 VRB03KT P6SM SCT250
     FM271200 VRB03KT 5SM BR SCT250
     FM271800 VRB03KT P6SM BKN100
     FM272100 17008KT P6SM BKN080
     FM280300 VRB03KT P6SM BKN025=



000
FTUS46 KLOX 270500
TAFLAX
TAF
KLAX 270539Z 2706/2812 VRB03KT P6SM SCT250
     FM271100 VRB03KT 5SM BR OVC012
     FM271800 VRB03KT 6SM BR BKN015 BKN100
     FM272100 26015KT P6SM SCT015 BKN080
     FM280500 28012KT P6SM BKN015 BKN080
     FM280900 30007KT P6SM OVC025=



000
FTUS46 KLOX 270500
TAFLGB
TAF
KLGB 270539Z 2706/2806 VRB03KT P6SM SCT250
     FM271100 VRB03KT P6SM OVC012
     FM272000 20008KT P6SM BKN080
     FM280200 28008KT P6SM BKN025=



000
FTUS46 KLOX 270500
TAFSMX
TAF
KSMX 270539Z 2706/2806 VRB03KT 5SM BR SCT250
     FM271100 VRB03KT 3SM BR BKN003
     FM271700 31010KT P6SM SCT005 BKN060
     FM272100 30020G28KT P6SM SCT025 BKN060
     FM280300 30010KT P6SM BKN025=



000
FTUS46 KLOX 270500
TAFSBP
TAF
KSBP 270539Z 2706/2806 VRB03KT P6SM SCT250
     FM271800 31010KT P6SM BKN050
     FM272100 31018G25KT P6SM SCT025 BKN050
     FM280300 31010KT P6SM BKN025=



000
FTUS46 KLOX 270500
TAFSBA
TAF
KSBA 270539Z 2706/2806 VRB03KT P6SM SCT250
     FM271800 23007KT P6SM BKN150
     FM272100 29012G20KT P6SM BKN100
     FM280400 33008KT P6SM BKN100=



000
FTUS46 KLOX 270500
TAFWJF
TAF
KWJF 270539Z 2706/2806 28012KT P6SM SCT250
     FM271800 27015G25KT P6SM BKN100
     FM272100 26023G33KT P6SM BKN080
     FM280400 25015G25KT P6SM BKN080=



000
FTUS46 KLOX 270400 AAA
TAFSMX
TAF AMD
KSMX 270414Z 2704/2724 VRB03KT 5SM BR SCT250
     FM271100 VRB03KT 3SM BR BKN003
     FM271700 31010KT P6SM SCT005 BKN080
     FM272100 30020G28KT P6SM SCT025 BKN060=



000
FTUS46 KLOX 270400 AAA
TAFSMX
TAF AMD
KSMX 270414Z 2704/2724 VRB03KT 5SM BR SCT250
     FM271100 VRB03KT 3SM BR BKN003
     FM271700 31010KT P6SM SCT005 BKN080
     FM272100 30020G28KT P6SM SCT025 BKN060=



000
FTUS46 KLOX 270200 AAA
TAFLAX
TAF AMD
KLAX 270250Z 2703/2806 25007KT P6SM SCT250
     FM270500 VRB03KT P6SM SCT250
     FM271100 VRB03KT 5SM BR OVC012
     FM271800 VRB03KT 6SM BR BKN015 BKN100
     FM272100 26012KT P6SM SCT015 BKN080
     FM280500 28008KT P6SM BKN015 BKN080=



000
FTUS46 KLOX 262300
TAFLAX
TAF
KLAX 262331Z 2700/2806 25012KT P6SM SCT250
     FM270500 VRB03KT P6SM SCT250
     FM271100 VRB03KT 5SM BR OVC012
     FM271800 VRB03KT 6SM BR BKN015 BKN100
     FM272100 26012KT P6SM SCT015 BKN080
     FM280500 28008KT P6SM BKN015 BKN080=



000
FTUS46 KLOX 262300
TAFWJF
TAF
KWJF 262331Z 2700/2724 28018KT P6SM SCT250
     FM270400 28012KT P6SM SCT250
     FM271800 27012KT P6SM BKN100
     FM272100 26020G30KT P6SM BKN080=



000
FTUS46 KLOX 262300
TAFVNY
TAF
KVNY 262331Z 2700/2724 15008KT P6SM SCT250
     FM270200 VRB03KT P6SM SCT250
     FM271100 VRB03KT 5SM BR SCT250
     FM271800 VRB03KT P6SM BKN100
     FM272100 15008KT P6SM BKN080=



000
FTUS46 KLOX 262300
TAFBUR
TAF
KBUR 262331Z 2700/2724 17008KT P6SM SCT250
     FM270300 VRB03KT P6SM SCT250
     FM271100 VRB03KT 5SM BR SCT250
     FM271800 VRB03KT P6SM BKN100
     FM272100 17008KT P6SM BKN080=



000
FTUS46 KLOX 262300
TAFPMD
TAF
KPMD 262331Z 2700/2724 31012KT P6SM SCT250
     FM270400 28008KT P6SM SCT250
     FM271800 27012KT P6SM BKN100
     FM272100 26018G28KT P6SM BKN080=



000
FTUS46 KLOX 262300
TAFSMX
TAF
KSMX 262331Z 2700/2724 30018KT P6SM SCT250
     FM270200 30010KT P6SM SCT250
     FM270500 VRB03KT P6SM SCT250
     FM271100 VRB03KT 3SM BR BKN003
     FM271700 31010KT P6SM SCT005 BKN080
     FM272100 30020G28KT P6SM SCT025 BKN060=



000
FTUS46 KLOX 262300
TAFSBA
TAF
KSBA 262331Z 2700/2724 16007KT P6SM SCT250
     FM270200 32008KT P6SM SCT250
     FM270800 VRB03KT P6SM SCT250
     FM271800 16006KT P6SM BKN100
     FM272100 28014G20KT P6SM BKN080=



000
FTUS46 KLOX 262300
TAFSBP
TAF
KSBP 262331Z 2700/2724 33015KT P6SM SCT250
     FM270200 33008KT P6SM SCT250
     FM270500 VRB03KT P6SM SCT250
     FM271800 31010KT P6SM BKN080
     FM272100 31018G25KT P6SM SCT025 BKN060=



000
FTUS46 KLOX 262300
TAFPRB
TAF
KPRB 262331Z 2700/2724 33008KT P6SM SCT250
     FM270500 VRB03KT P6SM SCT250
     FM271300 VRB03KT 1/4SM FG VV001
     FM271800 VRB03KT P6SM FEW004 BKN080
     FM272100 31012KT P6SM BKN060=



000
FTUS46 KLOX 262300
TAFLGB
TAF
KLGB 262331Z 2700/2724 19007KT P6SM SCT250
     FM270200 30008KT P6SM SCT250
     FM270500 VRB03KT P6SM SCT250
     FM271000 VRB03KT P6SM OVC012
     FM271800 VRB03KT P6SM FEW015 BKN100
     FM272100 20008KT P6SM BKN080=



000
FTUS46 KLOX 262000 AAA
TAFWJF
TAF AMD
KWJF 262051Z 2621/2718 27008KT P6SM SKC
     FM262200 28015KT P6SM SCT250
     FM270400 25008KT P6SM SKC=



000
FTUS46 KLOX 262000 AAA
TAFLAX
TAF AMD
KLAX 262045Z 2621/2724 25012KT P6SM SCT150 BKN200
     FM270400 VRB03KT P6SM SKC
     FM271000 VRB03KT 5SM BR OVC009
     FM271300 VRB03KT 5SM BR OVC014
     FM271800 26006KT P6SM SCT015
     FM272000 26010KT P6SM SCT250=



000
FTUS46 KLOX 261800 AAA
TAFPRB
TAF AMD
KPRB 261819Z 2618/2718 00000KT P6SM SCT003
     FM261830 VRB03KT P6SM SCT250
     FM262100 33008KT P6SM SKC
     FM270500 VRB03KT P6SM SKC
     FM271200 00000KT 1/2SM FG VV001=



000
FTUS46 KLOX 261700 RRA
TAFSMX
TAF
KSMX 261744Z 2618/2718 00000KT P6SM FEW250
     FM261900 31010KT P6SM SCT250
     FM262200 30015G22KT P6SM SKC
     FM270300 31008KT P6SM SKC
     FM270900 VRB03KT 6SM BR SKC=



000
FTUS46 KLOX 261700 RRA
TAFWJF
TAF
KWJF 261744Z 2618/2718 32011KT P6SM SKC
     FM262000 29014G24KT P6SM SCT250
     FM262300 28020G28KT P6SM SCT250
     FM270400 25012KT P6SM SKC=



000
FTUS46 KLOX 261700 RRA
TAFPMD
TAF
KPMD 261744Z 2618/2718 35006KT P6SM SKC
     FM262000 29010KT P6SM SCT250
     FM262300 31015G25KT P6SM SCT250
     FM270300 29014KT P6SM SKC
     FM270800 26012KT P6SM SKC=



000
FTUS46 KLOX 261700 RRA
TAFLAX
TAF
KLAX 261744Z 2618/2724 10003KT P6SM SCT250
     FM262000 24010KT P6SM SCT250
     FM270400 VRB03KT P6SM SKC
     FM271000 VRB03KT 5SM BR OVC009
     FM271300 VRB03KT 5SM BR OVC014
     FM271800 26006KT P6SM SCT015
     FM272000 26010KT P6SM SCT250=



000
FTUS46 KLOX 261700 RRA
TAFBUR
TAF
KBUR 261744Z 2618/2718 00000KT P6SM SKC
     FM262000 17008KT P6SM SCT250
     FM270300 VRB03KT P6SM SCT250
     FM270800 VRB03KT 4SM BR SCT250=



000
FTUS46 KLOX 261700 RRA
TAFSBA
TAF
KSBA 261744Z 2618/2718 15005KT P6SM SKC
     FM262100 23008KT P6SM SCT250 WS015/32025KT
     FM270000 30008KT P6SM SCT250 WS015/35025KT
     FM270400 02006KT P6SM SKC
     FM270800 VRB03KT P6SM SKC=



000
FTUS46 KLOX 261700 RRA
TAFLAX
TAF
KLAX 261744Z 2618/2724 10003KT P6SM SCT250
     FM262000 24010KT P6SM SCT250
     FM270400 VRB03KT P6SM SKC
     FM271000 VRB03KT 5SM BR OVC009
     FM271300 VRB03KT 5SM BR OVC014
     FM271800 26006KT P6SM SCT015
     FM272000 26010KT P6SM SCT250=



000
FTUS46 KLOX 261700 RRA
TAFSBP
TAF
KSBP 261744Z 2618/2718 00000KT P6SM FEW002
     FM261900 31010KT P6SM SCT250
     FM262200 31015G20KT P6SM SKC
     FM270300 33007KT P6SM SKC
     FM270600 VRB03KT P6SM SKC=



000
FTUS46 KLOX 261700 RRA
TAFSBA
TAF
KSBA 261744Z 2618/2718 15005KT P6SM SKC
     FM262100 23008KT P6SM SCT250 WS015/32025KT
     FM270000 30008KT P6SM SCT250 WS015/35025KT
     FM270400 02006KT P6SM SKC
     FM270800 VRB03KT P6SM SKC=



000
FTUS46 KLOX 261700 RRA
TAFPRB
TAF
KPRB 261744Z 2618/2718 00000KT 3SM BR OVC002
     FM261830 VRB03KT P6SM SCT250
     FM262100 33008KT P6SM SKC
     FM270500 VRB03KT P6SM SKC
     FM271200 00000KT 1/2SM FG VV001=



000
FTUS46 KLOX 261700 RRA
TAFLGB
TAF
KLGB 261744Z 2618/2718 00000KT P6SM SCT013
     FM262000 19007KT P6SM SCT250
     FM270100 30008KT P6SM SCT250
     FM270500 VRB03KT P6SM SCT250
     FM271000 VRB03KT 5SM BR OVC009
     FM271300 VRB03KT P6SM OVC013=



000
FTUS46 KLOX 261700 RRA
TAFSBP
TAF
KSBP 261744Z 2618/2718 00000KT P6SM FEW002
     FM261900 31010KT P6SM SCT250
     FM262200 31015G20KT P6SM SKC
     FM270300 33007KT P6SM SKC
     FM270600 VRB03KT P6SM SKC=



000
FTUS46 KLOX 261700 RRA
TAFVNY
TAF
KVNY 261744Z 2618/2718 00000KT P6SM SKC
     FM262100 14007KT P6SM SCT250
     FM270300 VRB05KT P6SM SCT250=



000
FTUS46 KLOX 261400 AAB
TAFLAX
TAF AMD
KLAX 261452Z 2615/2718 VRB03KT P6SM FEW004 SCT012
     FM262000 24010KT P6SM SCT250
     FM270400 VRB03KT P6SM SKC
     FM270900 VRB03KT 5SM BR OVC009
     FM271300 VRB03KT 5SM BR OVC014=



000
FTUS46 KLOX 261400 AAB
TAFLAX
TAF AMD
KLAX 261452Z 2615/2718 VRB03KT P6SM FEW004 SCT012
     FM262000 24010KT P6SM SCT250
     FM270400 VRB03KT P6SM SKC
     FM270900 VRB03KT 5SM BR OVC009
     FM271300 VRB03KT 5SM BR OVC014=



000
FTUS46 KLOX 261400 AAC
TAFLGB
TAF AMD
KLGB 261419Z 2614/2712 VRB03KT P6SM BKN009
     FM261700 VRB03KT P6SM SCT009
     FM262000 19007KT P6SM SCT250
     FM270100 30008KT P6SM SCT250=



000
FTUS46 KLOX 261400 AAA
TAFPRB
TAF AMD
KPRB 261417Z 2614/2712 VRB03KT P6SM BKN006
     FM261800 VRB03KT P6SM SKC
     FM262100 33008KT P6SM SKC
     FM270500 VRB03KT P6SM SKC=



000
FTUS46 KLOX 261300 AAA
TAFLGB
TAF AMD
KLGB 261348Z 2614/2712 VRB03KT P6SM SCT006
     FM261430 VRB03KT P6SM BKN007
     FM261700 VRB03KT P6SM SCT009
     FM262000 19007KT P6SM SCT250
     FM270100 30008KT P6SM SCT250=



000
FTUS46 KLOX 261100
TAFWJF
TAF
KWJF 261134Z 2612/2712 VRB05KT P6SM FEW250
     FM262000 29014G24KT P6SM SCT250
     FM262300 28020G28KT P6SM SCT250
     FM270400 25012KT P6SM SKC=



000
FTUS46 KLOX 261100
TAFSBA
TAF
KSBA 261134Z 2612/2712 VRB03KT P6SM FEW250
     FM261800 17006KT P6SM SKC
     FM262100 23008KT P6SM SCT250 WS015/32025KT
     FM270000 30008KT P6SM SCT250 WS015/35025KT
     FM270400 02006KT P6SM SKC
     FM270800 VRB03KT P6SM SKC=



000
FTUS46 KLOX 261100
TAFBUR
TAF
KBUR 261134Z 2612/2712 VRB03KT P6SM FEW250
     FM262000 17008KT P6SM SCT250
     FM270300 VRB03KT P6SM SCT250=



000
FTUS46 KLOX 261100
TAFVNY
TAF
KVNY 261134Z 2612/2712 VRB03KT P6SM FEW250
     FM262100 14007KT P6SM SCT250
     FM270300 VRB05KT P6SM SCT250=



000
FTUS46 KLOX 261100
TAFSBP
TAF
KSBP 261134Z 2612/2712 VRB03KT P6SM FEW250
     FM261900 31010KT P6SM SCT250
     FM262200 31015G22KT P6SM SKC
     FM270300 33007KT P6SM SKC
     FM270600 VRB03KT P6SM SKC=



000
FTUS46 KLOX 261100
TAFPRB
TAF
KPRB 261134Z 2612/2712 VRB03KT P6SM SCT250
     FM261400 VRB03KT P6SM BKN010
     FM261800 VRB03KT P6SM SKC
     FM262100 33008KT P6SM SKC
     FM270500 VRB03KT P6SM SKC=



000
FTUS46 KLOX 261100
TAFLGB
TAF
KLGB 261134Z 2612/2712 VRB03KT P6SM SKC
     FM261300 VRB03KT 6SM BR BKN008
     FM261600 VRB03KT P6SM SCT250
     FM262000 19007KT P6SM SCT250
     FM270100 30008KT P6SM SCT250=



000
FTUS46 KLOX 261100
TAFSMX
TAF
KSMX 261134Z 2612/2712 VRB03KT 6SM BR SCT003
     FM261800 36007KT P6SM SCT250
     FM262100 30015G25KT P6SM SKC
     FM270300 31008KT P6SM SKC
     FM270900 VRB03KT 6SM BR SKC=



000
FTUS46 KLOX 261100
TAFPMD
TAF
KPMD 261134Z 2612/2712 17005KT P6SM FEW250
     FM261400 VRB05KT P6SM FEW250
     FM262000 29010KT P6SM SCT250
     FM262300 31015G25KT P6SM SCT250
     FM270300 29014KT P6SM SKC
     FM270800 26012KT P6SM SKC=



000
FTUS46 KLOX 261100
TAFLAX
TAF
KLAX 261134Z 2612/2718 VRB03KT 6SM BR FEW007 SCT012
     FM261400 VRB03KT 5SM BR SCT007 BKN012
     FM261700 VRB03KT 6SM HZ SCT250
     FM262000 24010KT P6SM SCT250
     FM270400 VRB03KT P6SM SKC
     FM270900 VRB03KT 5SM BR OVC009
     FM271300 VRB03KT 5SM BR OVC014=



000
FTUS46 KLOX 261100
TAFLAX
TAF
KLAX 261134Z 2612/2718 VRB03KT 6SM BR FEW007 SCT012
     FM261400 VRB03KT 5SM BR SCT007 BKN012
     FM261700 VRB03KT 6SM HZ SCT250
     FM262000 24010KT P6SM SCT250
     FM270400 VRB03KT P6SM SKC
     FM270900 VRB03KT 5SM BR OVC009
     FM271300 VRB03KT 5SM BR OVC014=



000
FTUS46 KLOX 261100
TAFSBP
TAF
KSBP 261134Z 2612/2712 VRB03KT P6SM FEW250
     FM261900 31010KT P6SM SCT250
     FM262200 31015G22KT P6SM SKC
     FM270300 33007KT P6SM SKC
     FM270600 VRB03KT P6SM SKC=



000
FTUS46 KLOX 261100
TAFLGB
TAF
KLGB 261134Z 2612/2712 VRB03KT P6SM SKC
     FM261300 VRB03KT 6SM BR BKN008
     FM261600 VRB03KT P6SM SCT250
     FM262000 19007KT P6SM SCT250
     FM270100 30008KT P6SM SCT250=



000
FTUS46 KLOX 261100
TAFSBA
TAF
KSBA 261134Z 2612/2712 VRB03KT P6SM FEW250
     FM261800 17006KT P6SM SKC
     FM262100 23008KT P6SM SCT250 WS015/32025KT
     FM270000 30008KT P6SM SCT250 WS015/35025KT
     FM270400 02006KT P6SM SKC
     FM270800 VRB03KT P6SM SKC=



000
FTUS46 KLOX 261100
TAFPRB
TAF
KPRB 261134Z 2612/2712 VRB03KT P6SM SCT250
     FM261400 VRB03KT P6SM BKN010
     FM261800 VRB03KT P6SM SKC
     FM262100 33008KT P6SM SKC
     FM270500 VRB03KT P6SM SKC=



000
FTUS46 KLOX 261100
TAFWJF
TAF
KWJF 261134Z 2612/2712 VRB05KT P6SM FEW250
     FM262000 29014G24KT P6SM SCT250
     FM262300 28020G28KT P6SM SCT250
     FM270400 25012KT P6SM SKC=



000
FTUS46 KLOX 261100
TAFPMD
TAF
KPMD 261134Z 2612/2712 17005KT P6SM FEW250
     FM261400 VRB05KT P6SM FEW250
     FM262000 29010KT P6SM SCT250
     FM262300 31015G25KT P6SM SCT250
     FM270300 29014KT P6SM SKC
     FM270800 26012KT P6SM SKC=



000
FTUS46 KLOX 261100
TAFVNY
TAF
KVNY 261134Z 2612/2712 VRB03KT P6SM FEW250
     FM262100 14007KT P6SM SCT250
     FM270300 VRB05KT P6SM SCT250=



000
FTUS46 KLOX 261100
TAFSMX
TAF
KSMX 261134Z 2612/2712 VRB03KT 6SM BR SCT003
     FM261800 36007KT P6SM SCT250
     FM262100 30015G25KT P6SM SKC
     FM270300 31008KT P6SM SKC
     FM270900 VRB03KT 6SM BR SKC=



000
FTUS46 KLOX 261100
TAFBUR
TAF
KBUR 261134Z 2612/2712 VRB03KT P6SM FEW250
     FM262000 17008KT P6SM SCT250
     FM270300 VRB03KT P6SM SCT250=



000
FTUS46 KLOX 261000 AAA
TAFSMX
TAF AMD
KSMX 261042Z 2611/2706 VRB03KT 1SM BR SCT003
     FM261300 VRB03KT 1/2SM FG VV001
     FM261600 VRB03KT 3SM BR BKN004
     FM261800 01010KT P6SM SCT250
     FM262100 30018KT P6SM SCT250
     FM270100 31008KT P6SM SCT250=



000
FTUS46 KLOX 261000 AAA
TAFSMX
TAF AMD
KSMX 261042Z 2611/2706 VRB03KT 1SM BR SCT003
     FM261300 VRB03KT 1/2SM FG VV001
     FM261600 VRB03KT 3SM BR BKN004
     FM261800 01010KT P6SM SCT250
     FM262100 30018KT P6SM SCT250
     FM270100 31008KT P6SM SCT250=



000
FTUS46 KLOX 260900 AAA
TAFLGB
TAF AMD
KLGB 260938Z 2610/2706 VRB03KT P6SM SCT250
     FM261200 VRB03KT 5SM BR BKN008
     FM261600 VRB03KT P6SM SCT250
     FM262000 19007KT P6SM SCT250
     FM270100 30008KT P6SM SCT250=



000
FTUS46 KLOX 260900 AAA
TAFLGB
TAF AMD
KLGB 260938Z 2610/2706 VRB03KT P6SM SCT250
     FM261200 VRB03KT 5SM BR BKN008
     FM261600 VRB03KT P6SM SCT250
     FM262000 19007KT P6SM SCT250
     FM270100 30008KT P6SM SCT250=



000
FTUS46 KLOX 260800 AAA
TAFLAX
TAF AMD
KLAX 260858Z 2609/2712 VRB03KT P6SM FEW250
     FM261000 VRB03KT 6SM BR FEW250
     FM261700 VRB03KT 6SM HZ SCT250
     FM262000 25010KT P6SM SCT250
     FM270400 VRB03KT P6SM SCT250
     FM270700 VRB03KT P6SM OVC010=



000
FTUS46 KLOX 260800 AAA
TAFLAX
TAF AMD
KLAX 260858Z 2609/2712 VRB03KT P6SM FEW250
     FM261000 VRB03KT 6SM BR FEW250
     FM261700 VRB03KT 6SM HZ SCT250
     FM262000 25010KT P6SM SCT250
     FM270400 VRB03KT P6SM SCT250
     FM270700 VRB03KT P6SM OVC010=



    US Dept of Commerce
    National Oceanic and Atmospheric Administration
    National Weather Service
    1325 East West Highway
    Silver Spring, MD 20910
    Page Author: NWS Internet Services Team
Disclaimer
Information Quality
Credits
Glossary
Privacy Policy
Freedom of Information Act (FOIA)
About Us
Career Opportunities